Observation data for Canadian on 01/18/2019      Previous  Date  Next       Current Mesonet Observations  Soil Data  Daily Summary Page  Observations in Plain Language
KCA1 180600Z 11006KT 06/03 A2994 RMK A01 T00580033  RH  084%=      5-min Rain = 0
KCA1 180601Z 13007KT 06/03 A2994 RMK A01 T00580033  RH  084%=      5-min Rain = 0
KCA1 180602Z 13006KT 06/03 A2993 RMK A01 T00590034  RH  084%=      5-min Rain = 0
KCA1 180603Z 13007KT 06/03 A2993 RMK A01 T00590034  RH  084%=      5-min Rain = 0
KCA1 180604Z 14007KT 06/03 A2993 RMK A01 T00600034  RH  083%=      5-min Rain = 0
KCA1 180605Z 14004KT 06/03 A2993 RMK A01 T00590034  RH  084%=      5-min Rain = 0
KCA1 180606Z 13006KT 06/03 A2993 RMK A01 T00590034  RH  084%=      5-min Rain = 0
KCA1 180607Z 13005KT 06/03 A2993 RMK A01 T00590033  RH  084%=      5-min Rain = 0
KCA1 180608Z 13004KT 06/03 A2993 RMK A01 T00580033  RH  084%=      5-min Rain = 0
KCA1 180609Z 14006KT 06/03 A2993 RMK A01 T00570032  RH  084%=      5-min Rain = 0
KCA1 180610Z 13008KT 06/03 A2993 RMK A01 T00560032  RH  085%=      5-min Rain = 0
KCA1 180611Z 13006KT 06/04 A2993 RMK A01 T00570035  RH  085%=      5-min Rain = 0
KCA1 180612Z 13005KT 06/03 A2993 RMK A01 T00580034  RH  085%=      5-min Rain = 0
KCA1 180613Z 13005KT 06/03 A2993 RMK A01 T00580034  RH  085%=      5-min Rain = 0
KCA1 180614Z 13005KT 06/03 A2993 RMK A01 T00580034  RH  085%=      5-min Rain = 0
KCA1 180615Z 13007KT 06/03 A2993 RMK A01 T00570033  RH  085%=      5-min Rain = 0
KCA1 180616Z 14007KT 06/03 A2993 RMK A01 T00570034  RH  085%=      5-min Rain = 0
KCA1 180617Z 12007KT 06/03 A2993 RMK A01 T00570034  RH  085%=      5-min Rain = 0
KCA1 180618Z 14007KT 06/03 A2993 RMK A01 T00580034  RH  085%=      5-min Rain = 0
KCA1 180619Z 12006KT 06/03 A2993 RMK A01 T00580034  RH  085%=      5-min Rain = 0
KCA1 180620Z 13006KT 06/03 A2993 RMK A01 T00580034  RH  085%=      5-min Rain = 0
KCA1 180621Z 12006KT 06/03 A2993 RMK A01 T00580034  RH  084%=      5-min Rain = 0
KCA1 180622Z 13006KT 06/03 A2993 RMK A01 T00570033  RH  085%=      5-min Rain = 0
KCA1 180623Z 13007KT 06/03 A2993 RMK A01 T00570034  RH  085%=      5-min Rain = 0
KCA1 180624Z 12008KT 06/03 A2992 RMK A01 T00570034  RH  085%=      5-min Rain = 0
KCA1 180625Z 12006KT 06/03 A2992 RMK A01 T00580034  RH  085%=      5-min Rain = 0
KCA1 180626Z 12007KT 06/03 A2992 RMK A01 T00580034  RH  085%=      5-min Rain = 0
KCA1 180627Z 10007KT 06/03 A2992 RMK A01 T00580034  RH  085%=      5-min Rain = 0
KCA1 180628Z 12007KT 06/03 A2992 RMK A01 T00590034  RH  084%=      5-min Rain = 0
KCA1 180629Z 12006KT 06/03 A2992 RMK A01 T00590034  RH  084%=      5-min Rain = 0
KCA1 180630Z 11008KT 06/03 A2992 RMK A01 T00590034  RH  084%=      5-min Rain = 0
KCA1 180631Z 11007KT 06/03 A2992 RMK A01 T00590034  RH  084%=      5-min Rain = 0
KCA1 180632Z 13007KT 06/03 A2992 RMK A01 T00590034  RH  084%=      5-min Rain = 0
KCA1 180633Z 11006KT 06/04 A2992 RMK A01 T00590035  RH  085%=      5-min Rain = 0
KCA1 180634Z 11007KT 06/04 A2992 RMK A01 T00590035  RH  084%=      5-min Rain = 0
KCA1 180635Z 11006KT 06/03 A2992 RMK A01 T00590034  RH  084%=      5-min Rain = 0
KCA1 180636Z 10008KT 06/03 A2992 RMK A01 T00590034  RH  084%=      5-min Rain = 0
KCA1 180637Z 11006KT 06/03 A2992 RMK A01 T00580034  RH  085%=      5-min Rain = 0
KCA1 180638Z 12005KT 06/03 A2992 RMK A01 T00590034  RH  084%=      5-min Rain = 0
KCA1 180639Z 12006KT 06/03 A2992 RMK A01 T00580034  RH  084%=      5-min Rain = 0
KCA1 180640Z 12006KT 06/03 A2992 RMK A01 T00580034  RH  085%=      5-min Rain = 0
KCA1 180641Z 12006KT 06/03 A2992 RMK A01 T00570034  RH  085%=      5-min Rain = 0
KCA1 180642Z 11006KT 06/04 A2992 RMK A01 T00590035  RH  085%=      5-min Rain = 0
KCA1 180643Z 11007KT 06/04 A2992 RMK A01 T00590035  RH  084%=      5-min Rain = 0
KCA1 180644Z 11007KT 06/04 A2991 RMK A01 T00590035  RH  085%=      5-min Rain = 0
KCA1 180645Z 11007KT 06/04 A2991 RMK A01 T00590035  RH  084%=      5-min Rain = 0
KCA1 180646Z 11006KT 06/04 A2991 RMK A01 T00590035  RH  084%=      5-min Rain = 0
KCA1 180647Z 12008KT 06/04 A2991 RMK A01 T00600035  RH  084%=      5-min Rain = 0
KCA1 180648Z 12007KT 06/04 A2991 RMK A01 T00600035  RH  084%=      5-min Rain = 0
KCA1 180649Z 12006KT 06/04 A2991 RMK A01 T00600035  RH  084%=      5-min Rain = 0
KCA1 180650Z 12006KT 06/04 A2991 RMK A01 T00590035  RH  084%=      5-min Rain = 0
KCA1 180651Z 12008KT 06/04 A2991 RMK A01 T00590035  RH  084%=      5-min Rain = 0
KCA1 180652Z 12008KT 06/04 A2991 RMK A01 T00600035  RH  084%=      5-min Rain = 0
KCA1 180653Z 12007KT 06/04 A2991 RMK A01 T00600036  RH  084%=      5-min Rain = 0
KCA1 180654Z 14008KT 06/04 A2991 RMK A01 T00610036  RH  084%=      5-min Rain = 0
KCA1 180655Z 12007KT 06/04 A2991 RMK A01 T00620036  RH  084%=      5-min Rain = 0
KCA1 180656Z 12007KT 06/04 A2991 RMK A01 T00620036  RH  083%=      5-min Rain = 0
KCA1 180657Z 12007KT 06/04 A2991 RMK A01 T00620036  RH  083%=      5-min Rain = 0
KCA1 180658Z 13009KT 06/04 A2991 RMK A01 T00610036  RH  084%=      5-min Rain = 0
KCA1 180659Z 13008KT 06/04 A299 RMK A01 T00620037  RH  084%=      5-min Rain = 0
KCA1 180700Z 14007KT 06/04 A299 RMK A01 T00630037  RH  083%=      5-min Rain = 0
KCA1 180701Z 12005KT 06/04 A299 RMK A01 T00640037  RH  083%=      5-min Rain = 0
KCA1 180702Z 14006KT 06/04 A299 RMK A01 T00640037  RH  083%=      5-min Rain = 0
KCA1 180703Z 13005KT 06/04 A299 RMK A01 T00630036  RH  083%=      5-min Rain = 0
KCA1 180704Z 12006KT 06/04 A299 RMK A01 T00620036  RH  083%=      5-min Rain = 0
KCA1 180705Z 12005KT 06/04 A299 RMK A01 T00620036  RH  084%=      5-min Rain = 0
KCA1 180706Z 13007KT 06/04 A299 RMK A01 T00610036  RH  084%=      5-min Rain = 0
KCA1 180707Z 13007KT 06/04 A299 RMK A01 T00610036  RH  084%=      5-min Rain = 0
KCA1 180708Z 11007KT 06/04 A299 RMK A01 T00610037  RH  084%=      5-min Rain = 0
KCA1 180709Z 11007KT 06/04 A2989 RMK A01 T00610036  RH  084%=      5-min Rain = 0
KCA1 180710Z 11005KT 06/04 A2989 RMK A01 T00610036  RH  084%=      5-min Rain = 0
KCA1 180711Z 12006KT 06/04 A2989 RMK A01 T00590035  RH  084%=      5-min Rain = 0
KCA1 180712Z 14006KT 06/04 A2989 RMK A01 T00590036  RH  085%=      5-min Rain = 0
KCA1 180713Z 11006KT 06/04 A2989 RMK A01 T00590037  RH  086%=      5-min Rain = 0
KCA1 180714Z 12004KT 06/04 A2989 RMK A01 T00600037  RH  085%=      5-min Rain = 0
KCA1 180715Z 12007KT 06/04 A2989 RMK A01 T00600037  RH  085%=      5-min Rain = 0
KCA1 180716Z 11007KT 06/04 A2989 RMK A01 T00600037  RH  085%=      5-min Rain = 0
KCA1 180717Z 12006KT 06/04 A2989 RMK A01 T00600037  RH  085%=      5-min Rain = 0
KCA1 180718Z 11007KT 06/04 A2989 RMK A01 T00600037  RH  085%=      5-min Rain = 0
KCA1 180719Z 12006KT 06/04 A2989 RMK A01 T00590037  RH  086%=      5-min Rain = 0
KCA1 180720Z 12006KT 06/04 A2988 RMK A01 T00600038  RH  086%=      5-min Rain = 0
KCA1 180721Z 12008KT 06/04 A2988 RMK A01 T00620038  RH  085%=      5-min Rain = 0
KCA1 180722Z 13009KT 06/04 A2988 RMK A01 T00620038  RH  085%=      5-min Rain = 0
KCA1 180723Z 13008KT 06/04 A2988 RMK A01 T00620038  RH  085%=      5-min Rain = 0
KCA1 180724Z 14008KT 06/04 A2988 RMK A01 T00620038  RH  085%=      5-min Rain = 0
KCA1 180725Z 15009KT 06/04 A2988 RMK A01 T00620039  RH  085%=      5-min Rain = 0
KCA1 180726Z 14009KT 06/04 A2988 RMK A01 T00640039  RH  085%=      5-min Rain = 0
KCA1 180727Z 14009KT 06/04 A2987 RMK A01 T00640039  RH  084%=      5-min Rain = 0
KCA1 180728Z 13009KT 07/04 A2987 RMK A01 T00650040  RH  084%=      5-min Rain = 0
KCA1 180729Z 13008KT 07/04 A2987 RMK A01 T00650039  RH  084%=      5-min Rain = 0
KCA1 180730Z 14007KT 07/04 A2987 RMK A01 T00650039  RH  083%=      5-min Rain = 0
KCA1 180731Z 14008KT 07/04 A2987 RMK A01 T00650039  RH  084%=      5-min Rain = 0
KCA1 180732Z 14007KT 06/04 A2987 RMK A01 T00640039  RH  084%=      5-min Rain = 0
KCA1 180733Z 13004KT 06/04 A2987 RMK A01 T00640038  RH  084%=      5-min Rain = 0
KCA1 180734Z 15003KT 06/04 A2987 RMK A01 T00620037  RH  084%=      5-min Rain = 0
KCA1 180735Z 11005KT 06/04 A2986 RMK A01 T00620038  RH  085%=      5-min Rain = 0
KCA1 180736Z 10005KT 06/04 A2986 RMK A01 T00620038  RH  085%=      5-min Rain = 0
KCA1 180737Z 12004KT 06/04 A2986 RMK A01 T00620038  RH  085%=      5-min Rain = 0
KCA1 180738Z 14003KT 06/04 A2986 RMK A01 T00610037  RH  085%=      5-min Rain = 0
KCA1 180739Z 12003KT 06/04 A2986 RMK A01 T00600037  RH  085%=      5-min Rain = 0
KCA1 180740Z 11004KT 06/04 A2986 RMK A01 T00600037  RH  086%=      5-min Rain = 0
KCA1 180741Z 12006KT 06/04 A2986 RMK A01 T00590037  RH  086%=      5-min Rain = 0
KCA1 180742Z 10005KT 06/04 A2986 RMK A01 T00590038  RH  086%=      5-min Rain = 0
KCA1 180743Z 13004KT 06/04 A2986 RMK A01 T00600037  RH  086%=      5-min Rain = 0
KCA1 180744Z 11003KT 06/04 A2986 RMK A01 T00590037  RH  086%=      5-min Rain = 0
KCA1 180745Z 12004KT 06/04 A2986 RMK A01 T00590038  RH  086%=      5-min Rain = 0
KCA1 180746Z 13006KT 06/04 A2986 RMK A01 T00590037  RH  086%=      5-min Rain = 0
KCA1 180747Z 13003KT 06/04 A2986 RMK A01 T00590038  RH  086%=      5-min Rain = 0
KCA1 180748Z 14003KT 06/04 A2986 RMK A01 T00590038  RH  086%=      5-min Rain = 0
KCA1 180749Z 11004KT 06/04 A2985 RMK A01 T00590037  RH  086%=      5-min Rain = 0
KCA1 180750Z 12003KT 06/04 A2985 RMK A01 T00590038  RH  086%=      5-min Rain = 0
KCA1 180751Z 13004KT 06/04 A2985 RMK A01 T00590037  RH  086%=      5-min Rain = 0
KCA1 180752Z 12005KT 06/04 A2985 RMK A01 T00590037  RH  086%=      5-min Rain = 0
KCA1 180753Z 15007KT 06/04 A2985 RMK A01 T00580037  RH  086%=      5-min Rain = 0
KCA1 180754Z 15008KT 06/04 A2985 RMK A01 T00580037  RH  087%=      5-min Rain = 0
KCA1 180755Z 14004KT 06/04 A2985 RMK A01 T00590038  RH  087%=      5-min Rain = 0
KCA1 180756Z 15007KT 06/04 A2985 RMK A01 T00590038  RH  086%=      5-min Rain = 0
KCA1 180757Z 15005KT 06/04 A2985 RMK A01 T00590038  RH  086%=      5-min Rain = 0
KCA1 180758Z 15006KT 06/04 A2985 RMK A01 T00590038  RH  086%=      5-min Rain = 0
KCA1 180759Z 15008KT 06/04 A2984 RMK A01 T00590037  RH  086%=      5-min Rain = 0
KCA1 180800Z 14007KT 06/04 A2984 RMK A01 T00580038  RH  087%=      5-min Rain = 0
KCA1 180801Z 15008KT 06/04 A2984 RMK A01 T00590038  RH  087%=      5-min Rain = 0
KCA1 180802Z 15006KT 06/04 A2984 RMK A01 T00580037  RH  086%=      5-min Rain = 0
KCA1 180803Z 14007KT 06/04 A2984 RMK A01 T00580038  RH  087%=      5-min Rain = 0
KCA1 180804Z 15010KT 06/04 A2984 RMK A01 T00580038  RH  087%=      5-min Rain = 0
KCA1 180805Z 14007KT 06/04 A2984 RMK A01 T00580038  RH  087%=      5-min Rain = 0
KCA1 180806Z 14007KT 06/04 A2983 RMK A01 T00590038  RH  087%=      5-min Rain = 0
KCA1 180807Z 12007KT 06/04 A2984 RMK A01 T00590038  RH  087%=      5-min Rain = 0
KCA1 180808Z 13008KT 06/04 A2983 RMK A01 T00580038  RH  087%=      5-min Rain = 0
KCA1 180809Z 13006KT 06/04 A2983 RMK A01 T00580038  RH  087%=      5-min Rain = 0
KCA1 180810Z 15006G11KT 06/04 A2983 RMK A01 T00580037  RH  087%=      5-min Rain = 0
KCA1 180811Z 16007KT 06/04 A2984 RMK A01 T00570037  RH  087%=      5-min Rain = 0
KCA1 180812Z 15006KT 06/04 A2984 RMK A01 T00570037  RH  087%=      5-min Rain = 0
KCA1 180813Z 16007KT 06/04 A2984 RMK A01 T00570037  RH  087%=      5-min Rain = 0
KCA1 180814Z 14004KT 06/04 A2984 RMK A01 T00570037  RH  087%=      5-min Rain = 0
KCA1 180815Z 15005KT 06/04 A2984 RMK A01 T00570037  RH  087%=      5-min Rain = 0
KCA1 180816Z 14008KT 06/04 A2984 RMK A01 T00560037  RH  087%=      5-min Rain = 0
KCA1 180817Z 16006KT 06/04 A2983 RMK A01 T00560037  RH  088%=      5-min Rain = 0
KCA1 180818Z 16006KT 06/04 A2983 RMK A01 T00560037  RH  088%=      5-min Rain = 0
KCA1 180819Z 14007KT 06/04 A2983 RMK A01 T00560037  RH  088%=      5-min Rain = 0
KCA1 180820Z 16008KT 06/04 A2983 RMK A01 T00560037  RH  088%=      5-min Rain = 0
KCA1 180821Z 16009KT 06/04 A2983 RMK A01 T00570038  RH  088%=      5-min Rain = 0
KCA1 180822Z 15009G14KT 06/04 A2983 RMK A01 T00570037  RH  087%=      5-min Rain = 0
KCA1 180823Z 16008KT 06/04 A2983 RMK A01 T00570038  RH  087%=      5-min Rain = 0
KCA1 180824Z 16007KT 06/04 A2984 RMK A01 T00570038  RH  087%=      5-min Rain = 0
KCA1 180825Z 17009KT 06/04 A2983 RMK A01 T00570037  RH  087%=      5-min Rain = 0
KCA1 180826Z 16007G12KT 06/04 A2983 RMK A01 T00570038  RH  087%=      5-min Rain = 0
KCA1 180827Z 16008KT 06/04 A2983 RMK A01 T00570038  RH  087%=      5-min Rain = 0
KCA1 180828Z 16009KT 06/04 A2983 RMK A01 T00570037  RH  087%=      5-min Rain = 0
KCA1 180829Z 15006G11KT 06/04 A2983 RMK A01 T00570037  RH  087%=      5-min Rain = 0
KCA1 180830Z 16009KT 06/04 A2983 RMK A01 T00570037  RH  087%=      5-min Rain = 0
KCA1 180831Z 16008KT 06/04 A2983 RMK A01 T00560037  RH  088%=      5-min Rain = 0
KCA1 180832Z 16009KT 06/04 A2983 RMK A01 T00560037  RH  088%=      5-min Rain = 0
KCA1 180833Z 16010KT 06/04 A2983 RMK A01 T00560038  RH  088%=      5-min Rain = 0
KCA1 180834Z 16009KT 06/04 A2983 RMK A01 T00550037  RH  088%=      5-min Rain = 0
KCA1 180835Z 16009KT 06/04 A2982 RMK A01 T00560038  RH  088%=      5-min Rain = 0
KCA1 180836Z 15009KT 06/04 A2982 RMK A01 T00550038  RH  088%=      5-min Rain = 0
KCA1 180837Z 15011G16KT 06/04 A2982 RMK A01 T00550038  RH  089%=      5-min Rain = 0
KCA1 180838Z 16010KT 06/04 A2982 RMK A01 T00550038  RH  089%=      5-min Rain = 0
KCA1 180839Z 15011KT 06/04 A2982 RMK A01 T00550038  RH  089%=      5-min Rain = 0
KCA1 180840Z 15009KT 06/04 A2982 RMK A01 T00550038  RH  089%=      5-min Rain = 0
KCA1 180841Z 15012KT 05/04 A2981 RMK A01 T00540037  RH  089%=      5-min Rain = 0
KCA1 180842Z 15011KT 05/04 A2981 RMK A01 T00540038  RH  090%=      5-min Rain = 0
KCA1 180843Z 15011KT 05/04 A2981 RMK A01 T00530038  RH  090%=      5-min Rain = 0
KCA1 180844Z 15012KT 05/04 A2981 RMK A01 T00530038  RH  090%=      5-min Rain = 0
KCA1 180845Z 14010KT 05/04 A2981 RMK A01 T00530038  RH  090%=      5-min Rain = 0
KCA1 180846Z 14011G16KT 05/04 A2981 RMK A01 T00530038  RH  090%=      5-min Rain = 0
KCA1 180847Z 14009KT 05/04 A2981 RMK A01 T00520038  RH  091%=      5-min Rain = 0
KCA1 180848Z 14008KT 05/04 A2981 RMK A01 T00520038  RH  091%=      5-min Rain = 0
KCA1 180849Z 14010KT 05/04 A2981 RMK A01 T00520038  RH  091%=      5-min Rain = 0
KCA1 180850Z 14009KT 05/04 A2981 RMK A01 T00520038  RH  091%=      5-min Rain = 0
KCA1 180851Z 14010KT 05/04 A2981 RMK A01 T00510037  RH  091%=      5-min Rain = 0
KCA1 180852Z 14011KT 05/04 A2981 RMK A01 T00500037  RH  091%=      5-min Rain = 0
KCA1 180853Z 14011KT 05/04 A2981 RMK A01 T00500037  RH  091%=      5-min Rain = 0
KCA1 180854Z 14012KT 05/04 A2981 RMK A01 T00500037  RH  092%=      5-min Rain = 0
KCA1 180855Z 14012KT 05/04 A2981 RMK A01 T00500038  RH  092%=      5-min Rain = 0
KCA1 180856Z 15013KT 05/04 A2981 RMK A01 T00500038  RH  092%=      5-min Rain = 0
KCA1 180857Z 14011KT 05/04 A2981 RMK A01 T00500038  RH  092%=      5-min Rain = 0
KCA1 180858Z 15011G16KT 05/04 A2981 RMK A01 T00500037  RH  092%=      5-min Rain = 0
KCA1 180859Z 15010KT 05/04 A2982 RMK A01 T00500037  RH  092%=      5-min Rain = 0
KCA1 180900Z 15008KT 05/04 A2982 RMK A01 T00490036  RH  092%=      5-min Rain = 0
KCA1 180901Z 14007KT 05/04 A2982 RMK A01 T00480036  RH  092%=      5-min Rain = 0
KCA1 180902Z 15006KT 05/04 A2982 RMK A01 T00480036  RH  092%=      5-min Rain = 0
KCA1 180903Z 15006KT 05/04 A2982 RMK A01 T00480036  RH  092%=      5-min Rain = 0
KCA1 180904Z 16009KT 05/04 A2983 RMK A01 T00480036  RH  092%=      5-min Rain = 0
KCA1 180905Z 15005KT 05/04 A2983 RMK A01 T00480037  RH  092%=      5-min Rain = 0
KCA1 180906Z 15003KT 05/04 A2983 RMK A01 T00490037  RH  092%=      5-min Rain = 0
KCA1 180907Z 16004KT 05/04 A2983 RMK A01 T00490037  RH  092%=      5-min Rain = 0
KCA1 180908Z 18002KT 05/04 A2984 RMK A01 T00490036  RH  092%=      5-min Rain = 0
KCA1 180909Z 16001KT 05/04 A2984 RMK A01 T00490036  RH  092%=      5-min Rain = 0
KCA1 180910Z 19002KT 05/04 A2984 RMK A01 T00490036  RH  092%=      5-min Rain = 0
KCA1 180911Z 16003KT 05/04 A2984 RMK A01 T00480035  RH  092%=      5-min Rain = 0
KCA1 180912Z 17003KT 05/04 A2983 RMK A01 T00470035  RH  091%=      5-min Rain = 0
KCA1 180913Z 18005KT 05/03 A2983 RMK A01 T00470034  RH  091%=      5-min Rain = 0
KCA1 180914Z 16004KT 05/04 A2983 RMK A01 T00470035  RH  092%=      5-min Rain = 0
KCA1 180915Z 14005KT 05/04 A2983 RMK A01 T00480037  RH  092%=      5-min Rain = 0
KCA1 180916Z 14004KT 05/04 A2983 RMK A01 T00480035  RH  091%=      5-min Rain = 0
KCA1 180917Z 17004KT 05/03 A2983 RMK A01 T00470034  RH  091%=      5-min Rain = 0
KCA1 180918Z 18005KT 05/03 A2983 RMK A01 T00460033  RH  092%=      5-min Rain = 0
KCA1 180919Z 16006KT 05/03 A2983 RMK A01 T00460034  RH  093%=      5-min Rain = 0
KCA1 180920Z 16007KT 05/04 A2983 RMK A01 T00460035  RH  093%=      5-min Rain = 0
KCA1 180921Z 17008KT 05/04 A2983 RMK A01 T00460036  RH  093%=      5-min Rain = 0
KCA1 180922Z 14005KT 05/04 A2982 RMK A01 T00470036  RH  093%=      5-min Rain = 0
KCA1 180923Z 15007KT 05/04 A2982 RMK A01 T00470036  RH  093%=      5-min Rain = 0
KCA1 180924Z 15007KT 05/04 A2982 RMK A01 T00480037  RH  093%=      5-min Rain = 0
KCA1 180925Z 17010KT 05/04 A2982 RMK A01 T00480037  RH  092%=      5-min Rain = 0
KCA1 180926Z 16007KT 05/04 A2982 RMK A01 T00490037  RH  092%=      5-min Rain = 0
KCA1 180927Z 15005KT 05/04 A2982 RMK A01 T00490037  RH  092%=      5-min Rain = 0
KCA1 180928Z 15005KT 05/04 A2982 RMK A01 T00480036  RH  092%=      5-min Rain = 0
KCA1 180929Z 14005KT 05/04 A2982 RMK A01 T00480036  RH  092%=      5-min Rain = 0
KCA1 180930Z 16005KT 05/04 A2982 RMK A01 T00480036  RH  092%=      5-min Rain = 0
KCA1 180931Z 16003KT 05/04 A2982 RMK A01 T00480036  RH  092%=      5-min Rain = 0
KCA1 180932Z 13002KT 05/04 A2982 RMK A01 T00470036  RH  092%=      5-min Rain = 0
KCA1 180933Z 12003KT 05/04 A2982 RMK A01 T00470036  RH  092%=      5-min Rain = 0
KCA1 180934Z 13003KT 05/04 A2983 RMK A01 T00470036  RH  093%=      5-min Rain = 0
KCA1 180935Z 14004KT 05/04 A2983 RMK A01 T00470036  RH  093%=      5-min Rain = 0
KCA1 180936Z 16003KT 05/04 A2983 RMK A01 T00480036  RH  092%=      5-min Rain = 0
KCA1 180937Z 18003KT 05/04 A2983 RMK A01 T00480036  RH  092%=      5-min Rain = 0
KCA1 180938Z 14001KT 05/04 A2983 RMK A01 T00480036  RH  092%=      5-min Rain = 0
KCA1 180939Z 16001KT 05/04 A2983 RMK A01 T00470035  RH  092%=      5-min Rain = 0
KCA1 180940Z 18001KT 05/04 A2983 RMK A01 T00470036  RH  092%=      5-min Rain = 0
KCA1 180941Z 19004KT 05/04 A2982 RMK A01 T00470036  RH  092%=      5-min Rain = 0
KCA1 180942Z 17005KT 05/04 A2982 RMK A01 T00470036  RH  092%=      5-min Rain = 0
KCA1 180943Z 19007KT 05/04 A2982 RMK A01 T00470035  RH  092%=      5-min Rain = 0
KCA1 180944Z 17007KT 05/04 A2982 RMK A01 T00470036  RH  092%=      5-min Rain = 0
KCA1 180945Z 18010KT 05/04 A2981 RMK A01 T00470036  RH  092%=      5-min Rain = 0
KCA1 180946Z 17013KT 05/04 A2981 RMK A01 T00470035  RH  092%=      5-min Rain = 0
KCA1 180947Z 18012KT 05/04 A2981 RMK A01 T00470036  RH  093%=      5-min Rain = 0
KCA1 180948Z 18012KT 05/04 A2981 RMK A01 T00480037  RH  093%=      5-min Rain = 0
KCA1 180949Z 18014G20KT 05/04 A298 RMK A01 T00480036  RH  092%=      5-min Rain = 0
KCA1 180950Z 17014KT 05/04 A298 RMK A01 T00480037  RH  092%=      5-min Rain = 0
KCA1 180951Z 17012KT 05/04 A298 RMK A01 T00490037  RH  092%=      5-min Rain = 0
KCA1 180952Z 17014KT 05/04 A298 RMK A01 T00490037  RH  092%=      5-min Rain = 0
KCA1 180953Z 17015G20KT 05/04 A298 RMK A01 T00490037  RH  092%=      5-min Rain = 0
KCA1 180954Z 18012KT 05/04 A298 RMK A01 T00490038  RH  092%=      5-min Rain = 0
KCA1 180955Z 18011KT 05/04 A298 RMK A01 T00510038  RH  092%=      5-min Rain = 0
KCA1 180956Z 18011KT 05/04 A298 RMK A01 T00500037  RH  091%=      5-min Rain = 0
KCA1 180957Z 17009KT 05/04 A298 RMK A01 T00490036  RH  091%=      5-min Rain = 0
KCA1 180958Z 17010G15KT 05/04 A298 RMK A01 T00490036  RH  091%=      5-min Rain = 0
KCA1 180959Z 18011KT 05/04 A298 RMK A01 T00480035  RH  091%=      5-min Rain = 0
KCA1 181000Z 18010KT 05/04 A298 RMK A01 T00480036  RH  092%=      5-min Rain = 0
KCA1 181001Z 18009KT 05/04 A298 RMK A01 T00480036  RH  092%=      5-min Rain = 0
KCA1 181002Z 18011KT 05/04 A298 RMK A01 T00480035  RH  092%=      5-min Rain = 0
KCA1 181003Z 17010KT 05/04 A298 RMK A01 T00470035  RH  092%=      5-min Rain = 0
KCA1 181004Z 18011KT 05/04 A298 RMK A01 T00470036  RH  092%=      5-min Rain = 0
KCA1 181005Z 17015KT 05/04 A298 RMK A01 T00470036  RH  092%=      5-min Rain = 0
KCA1 181006Z 18014KT 05/04 A298 RMK A01 T00480037  RH  092%=      5-min Rain = 0
KCA1 181007Z 18015KT 05/04 A298 RMK A01 T00500037  RH  092%=      5-min Rain = 0
KCA1 181008Z 18016KT 05/04 A2979 RMK A01 T00510037  RH  091%=      5-min Rain = 0
KCA1 181009Z 18014KT 05/04 A2979 RMK A01 T00510037  RH  091%=      5-min Rain = 0
KCA1 181010Z 18014KT 05/04 A2979 RMK A01 T00510037  RH  090%=      5-min Rain = 0
KCA1 181011Z 18014KT 05/04 A2979 RMK A01 T00510037  RH  090%=      5-min Rain = 0
KCA1 181012Z 18014KT 05/04 A2979 RMK A01 T00510037  RH  090%=      5-min Rain = 0
KCA1 181013Z 18013KT 05/04 A2979 RMK A01 T00510037  RH  090%=      5-min Rain = 0
KCA1 181014Z 18013KT 05/04 A2979 RMK A01 T00510037  RH  090%=      5-min Rain = 0
KCA1 181015Z 19015KT 05/04 A2979 RMK A01 T00510036  RH  090%=      5-min Rain = 0
KCA1 181016Z 18015KT 05/04 A2979 RMK A01 T00510037  RH  090%=      5-min Rain = 0
KCA1 181017Z 19013KT 05/04 A2979 RMK A01 T00510037  RH  090%=      5-min Rain = 0
KCA1 181018Z 18012KT 05/04 A2979 RMK A01 T00510037  RH  090%=      5-min Rain = 0
KCA1 181019Z 18014KT 05/04 A2979 RMK A01 T00510036  RH  090%=      5-min Rain = 0
KCA1 181020Z 18013KT 05/04 A2979 RMK A01 T00510036  RH  091%=      5-min Rain = 0
KCA1 181021Z 18012KT 05/04 A2979 RMK A01 T00500036  RH  091%=      5-min Rain = 0
KCA1 181022Z 18013KT 05/04 A2978 RMK A01 T00500036  RH  091%=      5-min Rain = 0
KCA1 181023Z 19012KT 05/04 A2978 RMK A01 T00490036  RH  091%=      5-min Rain = 0
KCA1 181024Z 18011KT 05/04 A2978 RMK A01 T00490036  RH  091%=      5-min Rain = 0
KCA1 181025Z 17012KT 05/04 A2978 RMK A01 T00480036  RH  091%=      5-min Rain = 0
KCA1 181026Z 17010KT 05/04 A2978 RMK A01 T00480036  RH  092%=      5-min Rain = 0
KCA1 181027Z 18013KT 05/04 A2978 RMK A01 T00480036  RH  092%=      5-min Rain = 0
KCA1 181028Z 17011KT 05/04 A2978 RMK A01 T00480036  RH  092%=      5-min Rain = 0
KCA1 181029Z 17011KT 05/04 A2978 RMK A01 T00470035  RH  092%=      5-min Rain = 0
KCA1 181030Z 18011KT 05/04 A2978 RMK A01 T00470035  RH  092%=      5-min Rain = 0
KCA1 181031Z 17009KT 05/04 A2978 RMK A01 T00460035  RH  092%=      5-min Rain = 0
KCA1 181032Z 17010KT 05/03 A2978 RMK A01 T00460034  RH  093%=      5-min Rain = 0
KCA1 181033Z 18009KT 05/03 A2978 RMK A01 T00450034  RH  093%=      5-min Rain = 0
KCA1 181034Z 17009KT 04/03 A2978 RMK A01 T00440034  RH  093%=      5-min Rain = 0
KCA1 181035Z 17009KT 04/03 A2978 RMK A01 T00440034  RH  093%=      5-min Rain = 0
KCA1 181036Z 17008KT 04/03 A2978 RMK A01 T00440034  RH  093%=      5-min Rain = 0
KCA1 181037Z 17007KT 04/03 A2978 RMK A01 T00430034  RH  093%=      5-min Rain = 0
KCA1 181038Z 17009KT 04/03 A2978 RMK A01 T00430033  RH  093%=      5-min Rain = 0
KCA1 181039Z 17008KT 04/03 A2978 RMK A01 T00420033  RH  094%=      5-min Rain = 0
KCA1 181040Z 17008KT 04/03 A2978 RMK A01 T00420033  RH  094%=      5-min Rain = 0
KCA1 181041Z 16007KT 04/03 A2977 RMK A01 T00410033  RH  094%=      5-min Rain = 0
KCA1 181042Z 16009KT 04/03 A2977 RMK A01 T00410033  RH  094%=      5-min Rain = 0
KCA1 181043Z 15008KT 04/03 A2977 RMK A01 T00410033  RH  095%=      5-min Rain = 0
KCA1 181044Z 16007KT 04/03 A2977 RMK A01 T00410033  RH  095%=      5-min Rain = 0
KCA1 181045Z 15008KT 04/03 A2977 RMK A01 T00400033  RH  095%=      5-min Rain = 0
KCA1 181046Z 15007KT 04/03 A2977 RMK A01 T00400033  RH  095%=      5-min Rain = 0
KCA1 181047Z 15006KT 04/03 A2977 RMK A01 T00400032  RH  095%=      5-min Rain = 0
KCA1 181048Z 15008KT 04/03 A2977 RMK A01 T00390032  RH  095%=      5-min Rain = 0
KCA1 181049Z 14009KT 04/03 A2977 RMK A01 T00380032  RH  095%=      5-min Rain = 0
KCA1 181050Z 14009KT 04/03 A2977 RMK A01 T00380032  RH  096%=      5-min Rain = 0
KCA1 181051Z 15011KT 04/03 A2976 RMK A01 T00380033  RH  096%=      5-min Rain = 0
KCA1 181052Z 14010KT 04/03 A2976 RMK A01 T00390033  RH  096%=      5-min Rain = 0
KCA1 181053Z 15009KT 04/03 A2976 RMK A01 T00390034  RH  096%=      5-min Rain = 0
KCA1 181054Z 15010KT 04/03 A2976 RMK A01 T00390034  RH  096%=      5-min Rain = 0
KCA1 181055Z 15009KT 04/03 A2976 RMK A01 T00390034  RH  096%=      5-min Rain = 0
KCA1 181056Z 15010KT 04/03 A2976 RMK A01 T00390033  RH  096%=      5-min Rain = 0
KCA1 181057Z 15010KT 04/03 A2976 RMK A01 T00380033  RH  096%=      5-min Rain = 0
KCA1 181058Z 15010KT 04/03 A2976 RMK A01 T00380033  RH  096%=      5-min Rain = 0
KCA1 181059Z 16011KT 04/03 A2976 RMK A01 T00370032  RH  097%=      5-min Rain = 0
KCA1 181100Z 16010KT 04/03 A2976 RMK A01 T00370033  RH  097%=      5-min Rain = 0
KCA1 181101Z 16011KT 04/03 A2976 RMK A01 T00370033  RH  097%=      5-min Rain = 0
KCA1 181102Z 17011KT 04/03 A2976 RMK A01 T00370033  RH  097%=      5-min Rain = 0
KCA1 181103Z 16011KT 04/03 A2976 RMK A01 T00380033  RH  097%=      5-min Rain = 0
KCA1 181104Z 16010KT 04/03 A2975 RMK A01 T00380033  RH  097%=      5-min Rain = 0
KCA1 181105Z 16012KT 04/03 A2975 RMK A01 T00380033  RH  097%=      5-min Rain = 0
KCA1 181106Z 16010KT 04/03 A2975 RMK A01 T00380034  RH  097%=      5-min Rain = 0
KCA1 181107Z 17010KT 04/03 A2975 RMK A01 T00380033  RH  097%=      5-min Rain = 0
KCA1 181108Z 17009KT 04/03 A2975 RMK A01 T00370033  RH  097%=      5-min Rain = 0
KCA1 181109Z 17008KT 04/03 A2975 RMK A01 T00370034  RH  097%=      5-min Rain = 0
KCA1 181110Z 17010KT 04/03 A2975 RMK A01 T00370033  RH  097%=      5-min Rain = 0
KCA1 181111Z 17011KT 04/03 A2975 RMK A01 T00360033  RH  097%=      5-min Rain = 0
KCA1 181112Z 17010KT 04/03 A2975 RMK A01 T00370033  RH  098%=      5-min Rain = 0
KCA1 181113Z 16011KT 04/03 A2975 RMK A01 T00370033  RH  098%=      5-min Rain = 0
KCA1 181114Z 16011KT 04/03 A2975 RMK A01 T00370033  RH  098%=      5-min Rain = 0
KCA1 181115Z 16010KT 04/03 A2975 RMK A01 T00370034  RH  098%=      5-min Rain = 0
KCA1 181116Z 16010KT 04/03 A2975 RMK A01 T00370034  RH  098%=      5-min Rain = 0
KCA1 181117Z 17009KT 04/03 A2975 RMK A01 T00380034  RH  098%=      5-min Rain = 0
KCA1 181118Z 16008KT 04/03 A2975 RMK A01 T00380034  RH  097%=      5-min Rain = 0
KCA1 181119Z 17009KT 04/03 A2975 RMK A01 T00380034  RH  097%=      5-min Rain = 0
KCA1 181120Z 17008KT 04/03 A2975 RMK A01 T00380034  RH  097%=      5-min Rain = 0
KCA1 181121Z 16006KT 04/03 A2975 RMK A01 T00380034  RH  097%=      5-min Rain = 0
KCA1 181122Z 16006KT 04/03 A2975 RMK A01 T00380034  RH  097%=      5-min Rain = 0
KCA1 181123Z 16006KT 04/03 A2975 RMK A01 T00380034  RH  097%=      5-min Rain = 0
KCA1 181124Z 15006KT 04/03 A2975 RMK A01 T00370034  RH  097%=      5-min Rain = 0
KCA1 181125Z 15006KT 04/03 A2975 RMK A01 T00370034  RH  097%=      5-min Rain = 0
KCA1 181126Z 14006KT 04/03 A2975 RMK A01 T00370033  RH  098%=      5-min Rain = 0
KCA1 181127Z 14006KT 04/03 A2974 RMK A01 T00370033  RH  098%=      5-min Rain = 0
KCA1 181128Z 14004KT 04/03 A2974 RMK A01 T00370033  RH  098%=      5-min Rain = 0
KCA1 181129Z 14006KT 04/03 A2974 RMK A01 T00360033  RH  098%=      5-min Rain = 0
KCA1 181130Z 13006KT 04/03 A2974 RMK A01 T00360032  RH  098%=      5-min Rain = 0
KCA1 181131Z 13006KT 04/03 A2974 RMK A01 T00350032  RH  098%=      5-min Rain = 0
KCA1 181132Z 13007KT 04/03 A2974 RMK A01 T00350032  RH  098%=      5-min Rain = 0
KCA1 181133Z 12006KT 04/03 A2974 RMK A01 T00350032  RH  098%=      5-min Rain = 0
KCA1 181134Z 12006KT 04/03 A2974 RMK A01 T00350032  RH  098%=      5-min Rain = 0
KCA1 181135Z 12005KT 04/03 A2974 RMK A01 T00360033  RH  098%=      5-min Rain = 0
KCA1 181136Z 12005KT 04/03 A2974 RMK A01 T00350033  RH  098%=      5-min Rain = 0
KCA1 181137Z 11006KT 04/03 A2974 RMK A01 T00350032  RH  098%=      5-min Rain = 0
KCA1 181138Z 10005KT 04/03 A2974 RMK A01 T00350033  RH  098%=      5-min Rain = 0
KCA1 181139Z 10005KT 04/03 A2974 RMK A01 T00350032  RH  098%=      5-min Rain = 0
KCA1 181140Z 10006KT 03/03 A2974 RMK A01 T00340032  RH  099%=      5-min Rain = 0
KCA1 181141Z 10006KT 03/03 A2974 RMK A01 T00340032  RH  099%=      5-min Rain = 0
KCA1 181142Z 11005KT 03/03 A2974 RMK A01 T00340032  RH  099%=      5-min Rain = 0
KCA1 181143Z 12006KT 03/03 A2974 RMK A01 T00330032  RH  099%=      5-min Rain = 0
KCA1 181144Z 12005KT 03/03 A2974 RMK A01 T00330032  RH  099%=      5-min Rain = 0
KCA1 181145Z 13006KT 03/03 A2974 RMK A01 T00330032  RH  099%=      5-min Rain = 0
KCA1 181146Z 13005KT 03/03 A2975 RMK A01 T00340032  RH  099%=      5-min Rain = 0
KCA1 181147Z 12005KT 03/03 A2974 RMK A01 T00340033  RH  099%=      5-min Rain = 0
KCA1 181148Z 13005KT 03/03 A2974 RMK A01 T00330032  RH  099%=      5-min Rain = 0
KCA1 181149Z 13006KT 03/03 A2974 RMK A01 T00340032  RH  099%=      5-min Rain = 0
KCA1 181150Z 14007KT 03/03 A2974 RMK A01 T00340033  RH  099%=      5-min Rain = 0
KCA1 181151Z 14007KT 03/03 A2974 RMK A01 T00340033  RH  099%=      5-min Rain = 0
KCA1 181152Z 14010KT 03/03 A2974 RMK A01 T00340033  RH  099%=      5-min Rain = 0
KCA1 181153Z 14008KT 03/03 A2974 RMK A01 T00340033  RH  100%=      5-min Rain = 0
KCA1 181154Z 15009KT 03/03 A2974 RMK A01 T00340033  RH  100%=      5-min Rain = 0
KCA1 181155Z 15008KT 03/03 A2973 RMK A01 T00340033  RH  100%=      5-min Rain = 0
KCA1 181156Z 15008KT 03/03 A2973 RMK A01 T00340033  RH  100%=      5-min Rain = 0
KCA1 181157Z 15009KT 03/03 A2973 RMK A01 T00330033  RH  100%=      5-min Rain = 0
KCA1 181158Z 16009KT 03/03 A2973 RMK A01 T00340033  RH  100%=      5-min Rain = 0
KCA1 181159Z 15009KT 03/03 A2973 RMK A01 T00340033  RH  100%=      5-min Rain = 0
KCA1 181200Z 16008KT 03/03 A2973 RMK A01 T00340033  RH  100%=      5-min Rain = 0
KCA1 181201Z 15009KT 03/03 A2973 RMK A01 T00330033  RH  100%=      5-min Rain = 0
KCA1 181202Z 15009KT 03/03 A2973 RMK A01 T00330033  RH  100%=      5-min Rain = 0
KCA1 181203Z 15008KT 03/03 A2973 RMK A01 T00330033  RH  100%=      5-min Rain = 0
KCA1 181204Z 14008KT 03/03 A2973 RMK A01 T00320032  RH  100%=      5-min Rain = 0
KCA1 181205Z 15010KT 03/03 A2973 RMK A01 T00320031  RH  100%=      5-min Rain = 0
KCA1 181206Z 16011KT 03/03 A2973 RMK A01 T00320032  RH  100%=      5-min Rain = 0
KCA1 181207Z 15011KT 03/03 A2972 RMK A01 T00320032  RH  100%=      5-min Rain = 0
KCA1 181208Z 15011KT 03/03 A2972 RMK A01 T00320031  RH  100%=      5-min Rain = 0
KCA1 181209Z 15010KT 03/03 A2972 RMK A01 T00320031  RH  100%=      5-min Rain = 0
KCA1 181210Z 15011KT 03/03 A2972 RMK A01 T00320032  RH  100%=      5-min Rain = 0
KCA1 181211Z 15010KT 03/03 A2972 RMK A01 T00320032  RH  100%=      5-min Rain = 0
KCA1 181212Z 15011KT 03/03 A2972 RMK A01 T00320032  RH  100%=      5-min Rain = 0
KCA1 181213Z 15011KT 03/03 A2972 RMK A01 T00320032  RH  100%=      5-min Rain = 0
KCA1 181214Z 15009KT 03/03 A2972 RMK A01 T00320032  RH  100%=      5-min Rain = 0
KCA1 181215Z 14010KT 03/03 A2972 RMK A01 T00330033  RH  100%=      5-min Rain = 0
KCA1 181216Z 14008KT 03/03 A2972 RMK A01 T00330033  RH  100%=      5-min Rain = 0
KCA1 181217Z 15007KT 03/03 A2972 RMK A01 T00330033  RH  100%=      5-min Rain = 0
KCA1 181218Z 14006KT 03/03 A2972 RMK A01 T00330032  RH  100%=      5-min Rain = 0
KCA1 181219Z 13005KT 03/03 A2972 RMK A01 T00330033  RH  100%=      5-min Rain = 0
KCA1 181220Z 13007KT 03/03 A2972 RMK A01 T00330033  RH  100%=      5-min Rain = 0
KCA1 181221Z 12006KT 03/03 A2972 RMK A01 T00330033  RH  100%=      5-min Rain = 0
KCA1 181222Z 12006KT 03/03 A2972 RMK A01 T00330033  RH  100%=      5-min Rain = 0
KCA1 181223Z 11006KT 03/03 A2972 RMK A01 T00330033  RH  100%=      5-min Rain = 0
KCA1 181224Z 11005KT 03/03 A2972 RMK A01 T00330033  RH  100%=      5-min Rain = 0
KCA1 181225Z 11005KT 03/03 A2972 RMK A01 T00330032  RH  100%=      5-min Rain = 0
KCA1 181226Z 11006KT 03/03 A2972 RMK A01 T00320032  RH  100%=      5-min Rain = 0
KCA1 181227Z 11005KT 03/03 A2972 RMK A01 T00320032  RH  100%=      5-min Rain = 0
KCA1 181228Z 11005KT 03/03 A2972 RMK A01 T00320032  RH  100%=      5-min Rain = 0
KCA1 181229Z 12005KT 03/03 A2972 RMK A01 T00320031  RH  100%=      5-min Rain = 0
KCA1 181230Z 13006KT 03/03 A2972 RMK A01 T00320032  RH  100%=      5-min Rain = 0
KCA1 181231Z 13006KT 03/03 A2972 RMK A01 T00320032  RH  100%=      5-min Rain = 0
KCA1 181232Z 13007KT 03/03 A2972 RMK A01 T00320032  RH  100%=      5-min Rain = 0
KCA1 181233Z 13006KT 03/03 A2972 RMK A01 T00320032  RH  100%=      5-min Rain = 0
KCA1 181234Z 13008KT 03/03 A2972 RMK A01 T00320032  RH  100%=      5-min Rain = 0
KCA1 181235Z 13008KT 03/03 A2971 RMK A01 T00320032  RH  100%=      5-min Rain = 0
KCA1 181236Z 13008KT 03/03 A2971 RMK A01 T00330032  RH  100%=      5-min Rain = 0
KCA1 181237Z 13008KT 03/03 A2971 RMK A01 T00330032  RH  100%=      5-min Rain = 0
KCA1 181238Z 14008KT 03/03 A2971 RMK A01 T00330032  RH  100%=      5-min Rain = 0
KCA1 181239Z 14007KT 03/03 A2971 RMK A01 T00330032  RH  100%=      5-min Rain = 0
KCA1 181240Z 14008KT 03/03 A2971 RMK A01 T00320032  RH  100%=      5-min Rain = 0
KCA1 181241Z 14008KT 03/03 A2971 RMK A01 T00320031  RH  100%=      5-min Rain = 0
KCA1 181242Z 14007KT 03/03 A2971 RMK A01 T00320032  RH  100%=      5-min Rain = 0
KCA1 181243Z 14007KT 03/03 A2971 RMK A01 T00320032  RH  100%=      5-min Rain = 0
KCA1 181244Z 14008KT 03/03 A2971 RMK A01 T00320031  RH  100%=      5-min Rain = 0
KCA1 181245Z 14008KT 03/03 A2971 RMK A01 T00320031  RH  100%=      5-min Rain = 0
KCA1 181246Z 14009KT 03/03 A2971 RMK A01 T00320031  RH  100%=      5-min Rain = 0
KCA1 181247Z 14010KT 03/03 A2971 RMK A01 T00320032  RH  100%=      5-min Rain = 0
KCA1 181248Z 15009KT 03/03 A2971 RMK A01 T00330032  RH  100%=      5-min Rain = 0
KCA1 181249Z 15010KT 03/03 A297 RMK A01 T00330033  RH  100%=      5-min Rain = 0
KCA1 181250Z 14009KT 03/03 A297 RMK A01 T00330032  RH  100%=      5-min Rain = 0
KCA1 181251Z 13009KT 03/03 A297 RMK A01 T00330032  RH  100%=      5-min Rain = 0
KCA1 181252Z 13010KT 03/03 A297 RMK A01 T00330032  RH  099%=      5-min Rain = 0
KCA1 181253Z 13009KT 03/03 A297 RMK A01 T00330032  RH  099%=      5-min Rain = 0
KCA1 181254Z 13007KT 03/03 A297 RMK A01 T00330032  RH  099%=      5-min Rain = 0
KCA1 181255Z 13008KT 03/03 A297 RMK A01 T00330032  RH  099%=      5-min Rain = 0
KCA1 181256Z 13008KT 03/03 A2971 RMK A01 T00330032  RH  099%=      5-min Rain = 0
KCA1 181257Z 14007KT 03/03 A2971 RMK A01 T00330032  RH  099%=      5-min Rain = 0
KCA1 181258Z 13007KT 03/03 A2971 RMK A01 T00330032  RH  099%=      5-min Rain = 0
KCA1 181259Z 13007KT 03/03 A2971 RMK A01 T00330032  RH  099%=      5-min Rain = 0
KCA1 181300Z 14007KT 03/03 A2971 RMK A01 T00330032  RH  099%=      5-min Rain = 0
KCA1 181301Z 14007KT 03/03 A2971 RMK A01 T00330032  RH  099%=      5-min Rain = 0
KCA1 181302Z 14008KT 03/03 A2971 RMK A01 T00330031  RH  099%=      5-min Rain = 0
KCA1 181303Z 14007KT 03/03 A2971 RMK A01 T00330032  RH  099%=      5-min Rain = 0
KCA1 181304Z 14008KT 03/03 A2971 RMK A01 T00330031  RH  099%=      5-min Rain = 0
KCA1 181305Z 14009KT 03/03 A2971 RMK A01 T00330031  RH  099%=      5-min Rain = 0
KCA1 181306Z 14008KT 03/03 A2971 RMK A01 T00330031  RH  099%=      5-min Rain = 0
KCA1 181307Z 14008KT 03/03 A2971 RMK A01 T00330031  RH  099%=      5-min Rain = 0
KCA1 181308Z 14008KT 03/03 A2971 RMK A01 T00330031  RH  099%=      5-min Rain = 0
KCA1 181309Z 14008KT 03/03 A2971 RMK A01 T00330031  RH  099%=      5-min Rain = 0
KCA1 181310Z 14008KT 03/03 A2971 RMK A01 T00330031  RH  099%=      5-min Rain = 0
KCA1 181311Z 14010KT 03/03 A2971 RMK A01 T00330031  RH  099%=      5-min Rain = 0
KCA1 181312Z 14010KT 03/03 A2971 RMK A01 T00330031  RH  099%=      5-min Rain = 0
KCA1 181313Z 14009KT 03/03 A297 RMK A01 T00340032  RH  099%=      5-min Rain = 0
KCA1 181314Z 14009KT 03/03 A297 RMK A01 T00340032  RH  099%=      5-min Rain = 0
KCA1 181315Z 14010KT 03/03 A297 RMK A01 T00340032  RH  099%=      5-min Rain = 0
KCA1 181316Z 14011KT 03/03 A297 RMK A01 T00340032  RH  099%=      5-min Rain = 0
KCA1 181317Z 14010KT 04/03 A297 RMK A01 T00350032  RH  098%=      5-min Rain = 0
KCA1 181318Z 15010KT 04/03 A297 RMK A01 T00350032  RH  098%=      5-min Rain = 0
KCA1 181319Z 14010KT 04/03 A297 RMK A01 T00350032  RH  098%=      5-min Rain = 0
KCA1 181320Z 14009KT 04/03 A297 RMK A01 T00350032  RH  098%=      5-min Rain = 0
KCA1 181321Z 14009KT 04/03 A297 RMK A01 T00350032  RH  097%=      5-min Rain = 0
KCA1 181322Z 14008KT 04/03 A297 RMK A01 T00350032  RH  097%=      5-min Rain = 0
KCA1 181323Z 14008KT 04/03 A297 RMK A01 T00350031  RH  097%=      5-min Rain = 0
KCA1 181324Z 14008KT 04/03 A297 RMK A01 T00350031  RH  097%=      5-min Rain = 0
KCA1 181325Z 14008KT 04/03 A297 RMK A01 T00350031  RH  097%=      5-min Rain = 0
KCA1 181326Z 14008KT 04/03 A297 RMK A01 T00350031  RH  097%=      5-min Rain = 0
KCA1 181327Z 15008KT 04/03 A297 RMK A01 T00350031  RH  097%=      5-min Rain = 0
KCA1 181328Z 15008KT 04/03 A297 RMK A01 T00350031  RH  097%=      5-min Rain = 0
KCA1 181329Z 15009KT 04/03 A297 RMK A01 T00350031  RH  097%=      5-min Rain = 0
KCA1 181330Z 15008KT 04/03 A297 RMK A01 T00350031  RH  097%=      5-min Rain = 0
KCA1 181331Z 15007KT 04/03 A297 RMK A01 T00350031  RH  097%=      5-min Rain = 0
KCA1 181332Z 15008KT 04/03 A297 RMK A01 T00350031  RH  097%=      5-min Rain = 0
KCA1 181333Z 14009KT 04/03 A297 RMK A01 T00350031  RH  097%=      5-min Rain = 0
KCA1 181334Z 15008KT 04/03 A297 RMK A01 T00350031  RH  097%=      5-min Rain = 0
KCA1 181335Z 15008KT 04/03 A297 RMK A01 T00350031  RH  097%=      5-min Rain = 0
KCA1 181336Z 15007KT 04/03 A2971 RMK A01 T00350031  RH  097%=      5-min Rain = 0
KCA1 181337Z 15008KT 04/03 A2971 RMK A01 T00350031  RH  097%=      5-min Rain = 0
KCA1 181338Z 14008KT 03/03 A2971 RMK A01 T00340031  RH  097%=      5-min Rain = 0
KCA1 181339Z 14008KT 04/03 A2971 RMK A01 T00350031  RH  097%=      5-min Rain = 0
KCA1 181340Z 14008KT 03/03 A2971 RMK A01 T00340031  RH  097%=      5-min Rain = 0
KCA1 181341Z 14007KT 04/03 A2971 RMK A01 T00350031  RH  097%=      5-min Rain = 0
KCA1 181342Z 14006KT 04/03 A297 RMK A01 T00350031  RH  097%=      5-min Rain = 0
KCA1 181343Z 14008KT 04/03 A297 RMK A01 T00350031  RH  097%=      5-min Rain = 0
KCA1 181344Z 13009KT 04/03 A297 RMK A01 T00350031  RH  097%=      5-min Rain = 0
KCA1 181345Z 13008KT 04/03 A297 RMK A01 T00350031  RH  097%=      5-min Rain = 0
KCA1 181346Z 13008KT 04/03 A297 RMK A01 T00350031  RH  097%=      5-min Rain = 0
KCA1 181347Z 13007KT 04/03 A297 RMK A01 T00350031  RH  097%=      5-min Rain = 0
KCA1 181348Z 14007KT 04/03 A2971 RMK A01 T00350031  RH  097%=      5-min Rain = 0
KCA1 181349Z 13007KT 04/03 A297 RMK A01 T00350031  RH  097%=      5-min Rain = 0
KCA1 181350Z 13008KT 04/03 A297 RMK A01 T00360031  RH  097%=      5-min Rain = 0
KCA1 181351Z 13008KT 04/03 A297 RMK A01 T00350030  RH  096%=      5-min Rain = 0
KCA1 181352Z 13007KT 04/03 A297 RMK A01 T00360030  RH  096%=      5-min Rain = 0
KCA1 181353Z 14006KT 04/03 A297 RMK A01 T00350030  RH  096%=      5-min Rain = 0
KCA1 181354Z 14006KT 04/03 A297 RMK A01 T00350030  RH  096%=      5-min Rain = 0
KCA1 181355Z 14007KT 04/03 A297 RMK A01 T00360031  RH  096%=      5-min Rain = 0
KCA1 181356Z 15008KT 04/03 A297 RMK A01 T00350030  RH  096%=      5-min Rain = 0
KCA1 181357Z 15011KT 04/03 A297 RMK A01 T00360030  RH  096%=      5-min Rain = 0
KCA1 181358Z 15009KT 04/03 A297 RMK A01 T00370031  RH  096%=      5-min Rain = 0
KCA1 181359Z 15007KT 04/03 A297 RMK A01 T00370031  RH  096%=      5-min Rain = 0
KCA1 181400Z 16010KT 04/03 A297 RMK A01 T00370031  RH  096%=      5-min Rain = 0
KCA1 181401Z 15009KT 04/03 A297 RMK A01 T00370031  RH  095%=      5-min Rain = 0
KCA1 181402Z 16008KT 04/03 A297 RMK A01 T00370030  RH  095%=      5-min Rain = 0
KCA1 181403Z 16009KT 04/03 A297 RMK A01 T00370030  RH  095%=      5-min Rain = 0
KCA1 181404Z 15010KT 04/03 A297 RMK A01 T00380030  RH  095%=      5-min Rain = 0
KCA1 181405Z 15010KT 04/03 A297 RMK A01 T00380030  RH  095%=      5-min Rain = 0
KCA1 181406Z 15010KT 04/03 A297 RMK A01 T00380031  RH  095%=      5-min Rain = 0
KCA1 181407Z 15010KT 04/03 A297 RMK A01 T00380031  RH  095%=      5-min Rain = 0
KCA1 181408Z 15009KT 04/03 A2969 RMK A01 T00380031  RH  095%=      5-min Rain = 0
KCA1 181409Z 15011KT 04/03 A2969 RMK A01 T00380031  RH  095%=      5-min Rain = 0
KCA1 181410Z 15010KT 04/03 A2969 RMK A01 T00380031  RH  095%=      5-min Rain = 0
KCA1 181411Z 15011KT 04/03 A297 RMK A01 T00370030  RH  095%=      5-min Rain = 0
KCA1 181412Z 15012KT 04/03 A2969 RMK A01 T00380031  RH  095%=      5-min Rain = 0
KCA1 181413Z 15012KT 04/03 A297 RMK A01 T00380031  RH  095%=      5-min Rain = 0
KCA1 181414Z 16012KT 04/03 A2969 RMK A01 T00380031  RH  095%=      5-min Rain = 0
KCA1 181415Z 15012KT 04/03 A2969 RMK A01 T00380031  RH  095%=      5-min Rain = 0
KCA1 181416Z 15012KT 04/03 A2969 RMK A01 T00380031  RH  095%=      5-min Rain = 0
KCA1 181417Z 15013KT 04/03 A2969 RMK A01 T00380031  RH  095%=      5-min Rain = 0
KCA1 181418Z 15012KT 04/03 A2969 RMK A01 T00380031  RH  095%=      5-min Rain = 0
KCA1 181419Z 15012KT 04/03 A2969 RMK A01 T00380031  RH  095%=      5-min Rain = 0
KCA1 181420Z 15013KT 04/03 A2969 RMK A01 T00380031  RH  095%=      5-min Rain = 0
KCA1 181421Z 15012KT 04/03 A2969 RMK A01 T00380031  RH  095%=      5-min Rain = 0
KCA1 181422Z 15012KT 04/03 A2969 RMK A01 T00390031  RH  095%=      5-min Rain = 0
KCA1 181423Z 15013KT 04/03 A2968 RMK A01 T00390031  RH  095%=      5-min Rain = 0
KCA1 181424Z 15013KT 04/03 A2969 RMK A01 T00390031  RH  095%=      5-min Rain = 0
KCA1 181425Z 15012KT 04/03 A2969 RMK A01 T00390031  RH  095%=      5-min Rain = 0
KCA1 181426Z 15013KT 04/03 A2969 RMK A01 T00390031  RH  094%=      5-min Rain = 0
KCA1 181427Z 15013KT 04/03 A2969 RMK A01 T00400031  RH  094%=      5-min Rain = 0
KCA1 181428Z 15013KT 04/03 A2969 RMK A01 T00400031  RH  094%=      5-min Rain = 0
KCA1 181429Z 15012KT 04/03 A2969 RMK A01 T00400031  RH  094%=      5-min Rain = 0
KCA1 181430Z 16010KT 04/03 A2968 RMK A01 T00400031  RH  094%=      5-min Rain = 0
KCA1 181431Z 16011KT 04/03 A2968 RMK A01 T00400031  RH  094%=      5-min Rain = 0
KCA1 181432Z 15012KT 04/03 A2968 RMK A01 T00400031  RH  094%=      5-min Rain = 0
KCA1 181433Z 16013KT 04/03 A2968 RMK A01 T00400031  RH  094%=      5-min Rain = 0
KCA1 181434Z 15011KT 04/03 A2968 RMK A01 T00400031  RH  094%=      5-min Rain = 0
KCA1 181435Z 16012KT 04/03 A2968 RMK A01 T00400031  RH  094%=      5-min Rain = 0
KCA1 181436Z 16013KT 04/03 A2968 RMK A01 T00410031  RH  094%=      5-min Rain = 0
KCA1 181437Z 16012KT 04/03 A2968 RMK A01 T00410031  RH  094%=      5-min Rain = 0
KCA1 181438Z 16011KT 04/03 A2968 RMK A01 T00410031  RH  093%=      5-min Rain = 0
KCA1 181439Z 17011KT 04/03 A2968 RMK A01 T00410031  RH  093%=      5-min Rain = 0
KCA1 181440Z 16011KT 04/03 A2968 RMK A01 T00410031  RH  093%=      5-min Rain = 0
KCA1 181441Z 16011KT 04/03 A2968 RMK A01 T00410031  RH  093%=      5-min Rain = 0
KCA1 181442Z 16011KT 04/03 A2968 RMK A01 T00410031  RH  093%=      5-min Rain = 0
KCA1 181443Z 16013KT 04/03 A2968 RMK A01 T00410031  RH  093%=      5-min Rain = 0
KCA1 181444Z 16012KT 04/03 A2968 RMK A01 T00410031  RH  093%=      5-min Rain = 0
KCA1 181445Z 16012KT 04/03 A2968 RMK A01 T00410031  RH  093%=      5-min Rain = 0
KCA1 181446Z 16010KT 04/03 A2968 RMK A01 T00410031  RH  093%=      5-min Rain = 0
KCA1 181447Z 16010KT 04/03 A2968 RMK A01 T00410032  RH  093%=      5-min Rain = 0
KCA1 181448Z 16011KT 04/03 A2967 RMK A01 T00410032  RH  093%=      5-min Rain = 0
KCA1 181449Z 15010KT 04/03 A2967 RMK A01 T00410032  RH  093%=      5-min Rain = 0
KCA1 181450Z 16010KT 04/03 A2967 RMK A01 T00410032  RH  093%=      5-min Rain = 0
KCA1 181451Z 15011KT 04/03 A2967 RMK A01 T00420032  RH  093%=      5-min Rain = 0
KCA1 181452Z 15011KT 04/03 A2967 RMK A01 T00420032  RH  093%=      5-min Rain = 0
KCA1 181453Z 16010KT 04/03 A2967 RMK A01 T00420032  RH  093%=      5-min Rain = 0
KCA1 181454Z 15010KT 04/03 A2967 RMK A01 T00420032  RH  093%=      5-min Rain = 0
KCA1 181455Z 16010KT 04/03 A2967 RMK A01 T00430032  RH  093%=      5-min Rain = 0
KCA1 181456Z 16009KT 04/03 A2967 RMK A01 T00430032  RH  093%=      5-min Rain = 0
KCA1 181457Z 15010KT 04/03 A2967 RMK A01 T00430032  RH  093%=      5-min Rain = 0
KCA1 181458Z 15010KT 04/03 A2967 RMK A01 T00430033  RH  093%=      5-min Rain = 0
KCA1 181459Z 15010KT 04/03 A2967 RMK A01 T00440033  RH  093%=      5-min Rain = 0
KCA1 181500Z 16010KT 04/03 A2967 RMK A01 T00440033  RH  093%=      5-min Rain = 0
KCA1 181501Z 16012KT 04/03 A2967 RMK A01 T00440033  RH  093%=      5-min Rain = 0
KCA1 181502Z 16010KT 04/03 A2967 RMK A01 T00440033  RH  092%=      5-min Rain = 0
KCA1 181503Z 16009KT 04/03 A2967 RMK A01 T00440033  RH  092%=      5-min Rain = 0
KCA1 181504Z 16010KT 05/03 A2967 RMK A01 T00450033  RH  092%=      5-min Rain = 0
KCA1 181505Z 16011KT 05/03 A2967 RMK A01 T00450033  RH  092%=      5-min Rain = 0
KCA1 181506Z 15009KT 05/03 A2966 RMK A01 T00450033  RH  092%=      5-min Rain = 0
KCA1 181507Z 16009KT 05/03 A2966 RMK A01 T00450033  RH  092%=      5-min Rain = 0
KCA1 181508Z 15009KT 05/03 A2966 RMK A01 T00450033  RH  092%=      5-min Rain = 0
KCA1 181509Z 15007KT 05/03 A2966 RMK A01 T00450033  RH  092%=      5-min Rain = 0
KCA1 181510Z 16008KT 05/03 A2967 RMK A01 T00450033  RH  092%=      5-min Rain = 0
KCA1 181511Z 16008KT 05/03 A2967 RMK A01 T00460033  RH  092%=      5-min Rain = 0
KCA1 181512Z 15009KT 05/03 A2967 RMK A01 T00460033  RH  092%=      5-min Rain = 0
KCA1 181513Z 15007KT 05/03 A2967 RMK A01 T00450032  RH  091%=      5-min Rain = 0
KCA1 181514Z 15008KT 05/03 A2967 RMK A01 T00460033  RH  091%=      5-min Rain = 0
KCA1 181515Z 15009KT 05/03 A2966 RMK A01 T00460032  RH  091%=      5-min Rain = 0
KCA1 181516Z 15008KT 05/03 A2967 RMK A01 T00460032  RH  091%=      5-min Rain = 0
KCA1 181517Z 15006KT 05/03 A2966 RMK A01 T00460032  RH  091%=      5-min Rain = 0
KCA1 181518Z 14007KT 05/03 A2966 RMK A01 T00460033  RH  091%=      5-min Rain = 0
KCA1 181519Z 14006KT 05/03 A2966 RMK A01 T00460032  RH  091%=      5-min Rain = 0
KCA1 181520Z 15006KT 05/03 A2966 RMK A01 T00460032  RH  090%=      5-min Rain = 0
KCA1 181521Z 15006KT 05/03 A2966 RMK A01 T00470032  RH  090%=      5-min Rain = 0
KCA1 181522Z 15006KT 05/03 A2966 RMK A01 T00470032  RH  090%=      5-min Rain = 0
KCA1 181523Z 14005KT 05/03 A2966 RMK A01 T00470033  RH  090%=      5-min Rain = 0
KCA1 181524Z 14005KT 05/03 A2966 RMK A01 T00470033  RH  090%=      5-min Rain = 0
KCA1 181525Z 14005KT 05/03 A2966 RMK A01 T00470033  RH  090%=      5-min Rain = 0
KCA1 181526Z 14006KT 05/03 A2966 RMK A01 T00480033  RH  090%=      5-min Rain = 0
KCA1 181527Z 14005KT 05/03 A2966 RMK A01 T00480032  RH  090%=      5-min Rain = 0
KCA1 181528Z 15005KT 05/03 A2966 RMK A01 T00480033  RH  090%=      5-min Rain = 0
KCA1 181529Z 14005KT 05/03 A2966 RMK A01 T00490033  RH  090%=      5-min Rain = 0
KCA1 181530Z 15005KT 05/03 A2966 RMK A01 T00490033  RH  090%=      5-min Rain = 0
KCA1 181531Z 15006KT 05/03 A2966 RMK A01 T00490033  RH  090%=      5-min Rain = 0
KCA1 181532Z 15006KT 05/03 A2966 RMK A01 T00490032  RH  089%=      5-min Rain = 0
KCA1 181533Z 15005KT 05/03 A2966 RMK A01 T00490033  RH  089%=      5-min Rain = 0
KCA1 181534Z 15007KT 05/03 A2966 RMK A01 T00500034  RH  089%=      5-min Rain = 0
KCA1 181535Z 15008KT 05/03 A2966 RMK A01 T00500034  RH  089%=      5-min Rain = 0
KCA1 181536Z 15008KT 05/03 A2966 RMK A01 T00500033  RH  089%=      5-min Rain = 0
KCA1 181537Z 15008KT 05/03 A2966 RMK A01 T00500033  RH  089%=      5-min Rain = 0
KCA1 181538Z 15008KT 05/03 A2966 RMK A01 T00510034  RH  089%=      5-min Rain = 0
KCA1 181539Z 16008KT 05/03 A2966 RMK A01 T00510033  RH  089%=      5-min Rain = 0
KCA1 181540Z 16008KT 05/03 A2966 RMK A01 T00510034  RH  088%=      5-min Rain = 0
KCA1 181541Z 16008KT 05/03 A2966 RMK A01 T00520034  RH  088%=      5-min Rain = 0
KCA1 181542Z 17008KT 05/03 A2966 RMK A01 T00520034  RH  088%=      5-min Rain = 0
KCA1 181543Z 16008KT 05/03 A2966 RMK A01 T00520033  RH  087%=      5-min Rain = 0
KCA1 181544Z 17007KT 05/03 A2966 RMK A01 T00530034  RH  087%=      5-min Rain = 0
KCA1 181545Z 17007KT 05/03 A2966 RMK A01 T00540034  RH  087%=      5-min Rain = 0
KCA1 181546Z 17006KT 05/03 A2966 RMK A01 T00540034  RH  087%=      5-min Rain = 0
KCA1 181547Z 17007KT 06/04 A2966 RMK A01 T00550035  RH  087%=      5-min Rain = 0
KCA1 181548Z 17007KT 06/04 A2966 RMK A01 T00550035  RH  087%=      5-min Rain = 0
KCA1 181549Z 16006KT 06/03 A2965 RMK A01 T00560034  RH  086%=      5-min Rain = 0
KCA1 181550Z 16006KT 06/03 A2965 RMK A01 T00570034  RH  085%=      5-min Rain = 0
KCA1 181551Z 17006KT 06/03 A2965 RMK A01 T00570034  RH  085%=      5-min Rain = 0
KCA1 181552Z 17006KT 06/03 A2965 RMK A01 T00570033  RH  085%=      5-min Rain = 0
KCA1 181553Z 17005KT 06/04 A2966 RMK A01 T00580035  RH  085%=      5-min Rain = 0
KCA1 181554Z 17006KT 06/04 A2965 RMK A01 T00590035  RH  085%=      5-min Rain = 0
KCA1 181555Z 18006KT 06/04 A2965 RMK A01 T00600035  RH  084%=      5-min Rain = 0
KCA1 181556Z 17008KT 06/03 A2965 RMK A01 T00600034  RH  083%=      5-min Rain = 0
KCA1 181557Z 19009KT 06/03 A2965 RMK A01 T00600033  RH  083%=      5-min Rain = 0
KCA1 181558Z 19008KT 06/03 A2965 RMK A01 T00610033  RH  083%=      5-min Rain = 0
KCA1 181559Z 18009KT 06/03 A2965 RMK A01 T00610034  RH  083%=      5-min Rain = 0
KCA1 181600Z 18009KT 06/03 A2965 RMK A01 T00620034  RH  082%=      5-min Rain = 0
KCA1 181601Z 18009KT 06/03 A2965 RMK A01 T00630034  RH  082%=      5-min Rain = 0
KCA1 181602Z 19010KT 06/03 A2965 RMK A01 T00630033  RH  081%=      5-min Rain = 0
KCA1 181603Z 18009KT 06/03 A2965 RMK A01 T00630033  RH  081%=      5-min Rain = 0
KCA1 181604Z 18010KT 06/03 A2965 RMK A01 T00640033  RH  081%=      5-min Rain = 0
KCA1 181605Z 18008KT 06/03 A2965 RMK A01 T00640032  RH  080%=      5-min Rain = 0
KCA1 181606Z 17008KT 07/03 A2965 RMK A01 T00650034  RH  081%=      5-min Rain = 0
KCA1 181607Z 18008KT 07/04 A2965 RMK A01 T00650035  RH  081%=      5-min Rain = 0
KCA1 181608Z 18008KT 07/03 A2965 RMK A01 T00650034  RH  080%=      5-min Rain = 0
KCA1 181609Z 17010KT 07/03 A2965 RMK A01 T00660034  RH  080%=      5-min Rain = 0
KCA1 181610Z 17010KT 07/03 A2965 RMK A01 T00660034  RH  080%=      5-min Rain = 0
KCA1 181611Z 17010KT 07/03 A2966 RMK A01 T00660033  RH  079%=      5-min Rain = 0
KCA1 181612Z 18011KT 07/03 A2965 RMK A01 T00660033  RH  079%=      5-min Rain = 0
KCA1 181613Z 17010KT 07/03 A2965 RMK A01 T00660032  RH  079%=      5-min Rain = 0
KCA1 181614Z 18010KT 07/03 A2966 RMK A01 T00660032  RH  079%=      5-min Rain = 0
KCA1 181615Z 18010KT 07/03 A2966 RMK A01 T00660032  RH  079%=      5-min Rain = 0
KCA1 181616Z 18010KT 07/03 A2966 RMK A01 T00660032  RH  079%=      5-min Rain = 0
KCA1 181617Z 17008KT 07/03 A2966 RMK A01 T00660032  RH  079%=      5-min Rain = 0
KCA1 181618Z 17009KT 07/03 A2965 RMK A01 T00660033  RH  079%=      5-min Rain = 0
KCA1 181619Z 17010KT 07/03 A2965 RMK A01 T00670032  RH  079%=      5-min Rain = 0
KCA1 181620Z 18010KT 07/03 A2965 RMK A01 T00670033  RH  078%=      5-min Rain = 0
KCA1 181621Z 18009KT 07/03 A2965 RMK A01 T00670032  RH  078%=      5-min Rain = 0
KCA1 181622Z 17006KT 07/03 A2965 RMK A01 T00670033  RH  079%=      5-min Rain = 0
KCA1 181623Z 18006KT 07/03 A2965 RMK A01 T00680034  RH  079%=      5-min Rain = 0
KCA1 181624Z 18009KT 07/03 A2965 RMK A01 T00690034  RH  078%=      5-min Rain = 0
KCA1 181625Z 17007KT 07/03 A2965 RMK A01 T00690032  RH  077%=      5-min Rain = 0
KCA1 181626Z 18007KT 07/03 A2965 RMK A01 T00690033  RH  078%=      5-min Rain = 0
KCA1 181627Z 18007KT 07/03 A2965 RMK A01 T00690033  RH  078%=      5-min Rain = 0
KCA1 181628Z 17006KT 07/03 A2965 RMK A01 T00700033  RH  078%=      5-min Rain = 0
KCA1 181629Z 18007KT 07/03 A2965 RMK A01 T00700034  RH  078%=      5-min Rain = 0
KCA1 181630Z 18010KT 07/03 A2965 RMK A01 T00710032  RH  077%=      5-min Rain = 0
KCA1 181631Z 19008KT 07/03 A2965 RMK A01 T00710032  RH  076%=      5-min Rain = 0
KCA1 181632Z 18006KT 07/03 A2965 RMK A01 T00720033  RH  076%=      5-min Rain = 0
KCA1 181633Z 18007KT 07/03 A2965 RMK A01 T00730034  RH  076%=      5-min Rain = 0
KCA1 181634Z 18007KT 07/03 A2964 RMK A01 T00730033  RH  076%=      5-min Rain = 0
KCA1 181635Z 17006KT 07/03 A2965 RMK A01 T00730033  RH  076%=      5-min Rain = 0
KCA1 181636Z 19009KT 07/03 A2964 RMK A01 T00740034  RH  076%=      5-min Rain = 0
KCA1 181637Z 18008KT 07/03 A2964 RMK A01 T00740032  RH  075%=      5-min Rain = 0
KCA1 181638Z 17007KT 07/03 A2964 RMK A01 T00740033  RH  075%=      5-min Rain = 0
KCA1 181639Z 18009KT 08/03 A2964 RMK A01 T00750033  RH  075%=      5-min Rain = 0
KCA1 181640Z 18009KT 08/03 A2964 RMK A01 T00750033  RH  075%=      5-min Rain = 0
KCA1 181641Z 17006KT 08/03 A2964 RMK A01 T00750032  RH  074%=      5-min Rain = 0
KCA1 181642Z 18006KT 08/03 A2964 RMK A01 T00760033  RH  075%=      5-min Rain = 0
KCA1 181643Z 18007KT 08/04 A2964 RMK A01 T00770035  RH  075%=      5-min Rain = 0
KCA1 181644Z 18008KT 08/03 A2964 RMK A01 T00780034  RH  074%=      5-min Rain = 0
KCA1 181645Z 18009KT 08/03 A2964 RMK A01 T00780033  RH  073%=      5-min Rain = 0
KCA1 181646Z 17009KT 08/03 A2964 RMK A01 T00790034  RH  073%=      5-min Rain = 0
KCA1 181647Z 18008KT 08/03 A2964 RMK A01 T00800034  RH  073%=      5-min Rain = 0
KCA1 181648Z 18008KT 08/04 A2964 RMK A01 T00810035  RH  073%=      5-min Rain = 0
KCA1 181649Z 17009KT 08/04 A2964 RMK A01 T00820035  RH  072%=      5-min Rain = 0
KCA1 181650Z 18009KT 08/03 A2964 RMK A01 T00820034  RH  072%=      5-min Rain = 0
KCA1 181651Z 17008KT 08/03 A2964 RMK A01 T00820034  RH  072%=      5-min Rain = 0
KCA1 181652Z 18009KT 08/04 A2964 RMK A01 T00820035  RH  072%=      5-min Rain = 0
KCA1 181653Z 17009KT 08/03 A2964 RMK A01 T00820034  RH  072%=      5-min Rain = 0
KCA1 181654Z 17010KT 08/03 A2964 RMK A01 T00820034  RH  072%=      5-min Rain = 0
KCA1 181655Z 17009KT 08/03 A2964 RMK A01 T00810034  RH  072%=      5-min Rain = 0
KCA1 181656Z 17008KT 08/04 A2964 RMK A01 T00820035  RH  072%=      5-min Rain = 0
KCA1 181657Z 18010KT 08/03 A2964 RMK A01 T00820034  RH  072%=      5-min Rain = 0
KCA1 181658Z 17008KT 08/03 A2964 RMK A01 T00820033  RH  071%=      5-min Rain = 0
KCA1 181659Z 18008KT 08/03 A2964 RMK A01 T00820033  RH  071%=      5-min Rain = 0
KCA1 181700Z 18009KT 08/03 A2964 RMK A01 T00830034  RH  071%=      5-min Rain = 0
KCA1 181701Z 18008KT 08/04 A2964 RMK A01 T00840035  RH  071%=      5-min Rain = 0
KCA1 181702Z 17008KT 08/03 A2964 RMK A01 T00840034  RH  071%=      5-min Rain = 0
KCA1 181703Z 17008KT 08/04 A2964 RMK A01 T00840035  RH  071%=      5-min Rain = 0
KCA1 181704Z 18009KT 09/04 A2964 RMK A01 T00850035  RH  071%=      5-min Rain = 0
KCA1 181705Z 18009KT 09/03 A2964 RMK A01 T00860034  RH  070%=      5-min Rain = 0
KCA1 181706Z 18008KT 09/04 A2964 RMK A01 T00860035  RH  070%=      5-min Rain = 0
KCA1 181707Z 18006KT 09/04 A2963 RMK A01 T00870035  RH  070%=      5-min Rain = 0
KCA1 181708Z 17007KT 09/04 A2963 RMK A01 T00880036  RH  070%=      5-min Rain = 0
KCA1 181709Z 17008KT 09/04 A2963 RMK A01 T00890037  RH  070%=      5-min Rain = 0
KCA1 181710Z 18008KT 09/04 A2963 RMK A01 T00890036  RH  069%=      5-min Rain = 0
KCA1 181711Z 18008KT 09/04 A2963 RMK A01 T00890036  RH  069%=      5-min Rain = 0
KCA1 181712Z 18008KT 09/04 A2963 RMK A01 T00900036  RH  069%=      5-min Rain = 0
KCA1 181713Z 18007KT 09/04 A2963 RMK A01 T00900036  RH  069%=      5-min Rain = 0
KCA1 181714Z 18009KT 09/04 A2963 RMK A01 T00910037  RH  069%=      5-min Rain = 0
KCA1 181715Z 18008KT 09/04 A2963 RMK A01 T00920037  RH  069%=      5-min Rain = 0
KCA1 181716Z 16008KT 09/04 A2963 RMK A01 T00910037  RH  069%=      5-min Rain = 0
KCA1 181717Z 17009KT 09/04 A2963 RMK A01 T00920037  RH  069%=      5-min Rain = 0
KCA1 181718Z 17008KT 09/04 A2962 RMK A01 T00930038  RH  068%=      5-min Rain = 0
KCA1 181719Z 17008KT 09/04 A2962 RMK A01 T00930038  RH  068%=      5-min Rain = 0
KCA1 181720Z 18008KT 09/04 A2962 RMK A01 T00940038  RH  068%=      5-min Rain = 0
KCA1 181721Z 18006KT 09/04 A2962 RMK A01 T00940037  RH  068%=      5-min Rain = 0
KCA1 181722Z 17006KT 10/04 A2962 RMK A01 T00950038  RH  068%=      5-min Rain = 0
KCA1 181723Z 18006KT 10/04 A2962 RMK A01 T00950038  RH  068%=      5-min Rain = 0
KCA1 181724Z 18005KT 10/04 A2962 RMK A01 T00950037  RH  067%=      5-min Rain = 0
KCA1 181725Z 17006KT 10/04 A2962 RMK A01 T00950037  RH  067%=      5-min Rain = 0
KCA1 181726Z 17005KT 10/04 A2962 RMK A01 T00950038  RH  068%=      5-min Rain = 0
KCA1 181727Z 17004KT 10/04 A2962 RMK A01 T00950038  RH  067%=      5-min Rain = 0
KCA1 181728Z 17005KT 10/04 A2962 RMK A01 T00950038  RH  067%=      5-min Rain = 0
KCA1 181729Z 17005KT 10/04 A2961 RMK A01 T00960039  RH  067%=      5-min Rain = 0
KCA1 181730Z 17005KT 10/04 A2961 RMK A01 T00970039  RH  067%=      5-min Rain = 0
KCA1 181731Z 18004KT 10/04 A2961 RMK A01 T00980039  RH  067%=      5-min Rain = 0
KCA1 181732Z 18004KT 10/04 A2961 RMK A01 T00980038  RH  066%=      5-min Rain = 0
KCA1 181733Z 18002KT 10/04 A2961 RMK A01 T00990037  RH  065%=      5-min Rain = 0
KCA1 181734Z 20003KT 10/04 A296 RMK A01 T01000038  RH  065%=      5-min Rain = 0
KCA1 181735Z 19003KT 10/04 A296 RMK A01 T01010036  RH  064%=      5-min Rain = 0
KCA1 181736Z 18004KT 10/04 A296 RMK A01 T01010037  RH  064%=      5-min Rain = 0
KCA1 181737Z 20004KT 10/04 A296 RMK A01 T01030039  RH  064%=      5-min Rain = 0
KCA1 181738Z 20004KT 11/04 A296 RMK A01 T01060040  RH  064%=      5-min Rain = 0
KCA1 181739Z 21003KT 11/04 A2959 RMK A01 T01080038  RH  062%=      5-min Rain = 0
KCA1 181740Z 20003KT 11/04 A2959 RMK A01 T01100039  RH  061%=      5-min Rain = 0
KCA1 181741Z 20006KT 11/04 A2959 RMK A01 T01120038  RH  060%=      5-min Rain = 0
KCA1 181742Z 20005KT 11/04 A2959 RMK A01 T01120037  RH  060%=      5-min Rain = 0
KCA1 181743Z 20004KT 11/04 A2959 RMK A01 T01140039  RH  060%=      5-min Rain = 0
KCA1 181744Z 21004KT 12/04 A2959 RMK A01 T01180042  RH  060%=      5-min Rain = 0
KCA1 181745Z 23004KT 12/04 A2959 RMK A01 T01210043  RH  059%=      5-min Rain = 0
KCA1 181746Z 22004KT 12/04 A2959 RMK A01 T01230042  RH  058%=      5-min Rain = 0
KCA1 181747Z 20004KT 13/04 A2959 RMK A01 T01250042  RH  057%=      5-min Rain = 0
KCA1 181748Z 19007KT 13/04 A2959 RMK A01 T01260041  RH  056%=      5-min Rain = 0
KCA1 181749Z 20006KT 13/04 A2959 RMK A01 T01250039  RH  056%=      5-min Rain = 0
KCA1 181750Z 19004KT 12/04 A2959 RMK A01 T01220038  RH  057%=      5-min Rain = 0
KCA1 181751Z 19006KT 12/04 A2959 RMK A01 T01210040  RH  058%=      5-min Rain = 0
KCA1 181752Z 19005KT 12/04 A2959 RMK A01 T01220039  RH  057%=      5-min Rain = 0
KCA1 181753Z 19004KT 12/04 A2959 RMK A01 T01220039  RH  057%=      5-min Rain = 0
KCA1 181754Z 19007KT 12/04 A2959 RMK A01 T01220041  RH  058%=      5-min Rain = 0
KCA1 181755Z 19005KT 12/04 A2959 RMK A01 T01230040  RH  057%=      5-min Rain = 0
KCA1 181756Z 20004KT 12/04 A2959 RMK A01 T01220041  RH  057%=      5-min Rain = 0
KCA1 181757Z 19003KT 12/04 A2959 RMK A01 T01220043  RH  058%=      5-min Rain = 0
KCA1 181758Z 19004KT 12/04 A2959 RMK A01 T01240043  RH  058%=      5-min Rain = 0
KCA1 181759Z 18004KT 13/04 A2959 RMK A01 T01250043  RH  057%=      5-min Rain = 0
KCA1 181800Z 18004KT 13/04 A2959 RMK A01 T01250042  RH  057%=      5-min Rain = 0
KCA1 181801Z 19004KT 13/04 A2959 RMK A01 T01250042  RH  057%=      5-min Rain = 0
KCA1 181802Z 19004KT 13/04 A2959 RMK A01 T01260043  RH  057%=      5-min Rain = 0
KCA1 181803Z 20003KT 13/04 A2959 RMK A01 T01270044  RH  057%=      5-min Rain = 0
KCA1 181804Z 20003KT 13/04 A2959 RMK A01 T01290044  RH  056%=      5-min Rain = 0
KCA1 181805Z 21004KT 13/04 A2959 RMK A01 T01310044  RH  055%=      5-min Rain = 0
KCA1 181806Z 22004KT 13/04 A2958 RMK A01 T01320043  RH  055%=      5-min Rain = 0
KCA1 181807Z 22004KT 13/04 A2958 RMK A01 T01340043  RH  054%=      5-min Rain = 0
KCA1 181808Z 23005KT 14/04 A2958 RMK A01 T01360042  RH  053%=      5-min Rain = 0
KCA1 181809Z 22007KT 14/04 A2958 RMK A01 T01380038  RH  051%=      5-min Rain = 0
KCA1 181810Z 23007KT 14/04 A2959 RMK A01 T01390036  RH  050%=      5-min Rain = 0
KCA1 181811Z 23006KT 14/04 A2959 RMK A01 T01390036  RH  050%=      5-min Rain = 0
KCA1 181812Z 24007KT 14/04 A2959 RMK A01 T01400035  RH  049%=      5-min Rain = 0
KCA1 181813Z 23005KT 14/04 A2958 RMK A01 T01400035  RH  049%=      5-min Rain = 0
KCA1 181814Z 25006KT 14/04 A2958 RMK A01 T01410035  RH  049%=      5-min Rain = 0
KCA1 181815Z 24007KT 14/03 A2958 RMK A01 T01420034  RH  048%=      5-min Rain = 0
KCA1 181816Z 24009KT 14/03 A2958 RMK A01 T01420033  RH  048%=      5-min Rain = 0
KCA1 181817Z 25007KT 14/03 A2958 RMK A01 T01430032  RH  047%=      5-min Rain = 0
KCA1 181818Z 25006KT 14/03 A2958 RMK A01 T01430032  RH  047%=      5-min Rain = 0
KCA1 181819Z 25006KT 14/03 A2958 RMK A01 T01430033  RH  048%=      5-min Rain = 0
KCA1 181820Z 24005KT 14/03 A2958 RMK A01 T01440034  RH  047%=      5-min Rain = 0
KCA1 181821Z 25008KT 14/03 A2958 RMK A01 T01440033  RH  047%=      5-min Rain = 0
KCA1 181822Z 26008KT 14/03 A2958 RMK A01 T01440032  RH  047%=      5-min Rain = 0
KCA1 181823Z 26007KT 15/03 A2958 RMK A01 T01450032  RH  047%=      5-min Rain = 0
KCA1 181824Z 27006KT 15/03 A2958 RMK A01 T01450033  RH  047%=      5-min Rain = 0
KCA1 181825Z 27005KT 15/03 A2958 RMK A01 T01450032  RH  047%=      5-min Rain = 0
KCA1 181826Z 26005KT 15/03 A2957 RMK A01 T01450033  RH  047%=      5-min Rain = 0
KCA1 181827Z 25006KT 15/03 A2957 RMK A01 T01460033  RH  047%=      5-min Rain = 0
KCA1 181828Z 26005KT 15/03 A2957 RMK A01 T01470034  RH  047%=      5-min Rain = 0
KCA1 181829Z 26005KT 15/04 A2957 RMK A01 T01480035  RH  046%=      5-min Rain = 0
KCA1 181830Z 25006KT 15/03 A2957 RMK A01 T01500034  RH  046%=      5-min Rain = 0
KCA1 181831Z 26006KT 15/04 A2957 RMK A01 T01520036  RH  046%=      5-min Rain = 0
KCA1 181832Z 25008KT 15/03 A2957 RMK A01 T01540034  RH  045%=      5-min Rain = 0
KCA1 181833Z 25007KT 16/04 A2957 RMK A01 T01570037  RH  045%=      5-min Rain = 0
KCA1 181834Z 25009KT 16/04 A2957 RMK A01 T01590036  RH  044%=      5-min Rain = 0
KCA1 181835Z 25006KT 16/04 A2957 RMK A01 T01620040  RH  044%=      5-min Rain = 0
KCA1 181836Z 25010KT 17/04 A2957 RMK A01 T01660039  RH  043%=      5-min Rain = 0
KCA1 181837Z 25009KT 17/04 A2957 RMK A01 T01650035  RH  042%=      5-min Rain = 0
KCA1 181838Z 24010KT 16/03 A2957 RMK A01 T01630034  RH  042%=      5-min Rain = 0
KCA1 181839Z 24009KT 16/03 A2957 RMK A01 T01620033  RH  042%=      5-min Rain = 0
KCA1 181840Z 24008KT 16/03 A2956 RMK A01 T01610033  RH  042%=      5-min Rain = 0
KCA1 181841Z 26006KT 16/04 A2956 RMK A01 T01600035  RH  043%=      5-min Rain = 0
KCA1 181842Z 24011KT 16/04 A2956 RMK A01 T01600035  RH  043%=      5-min Rain = 0
KCA1 181843Z 24012KT 16/03 A2956 RMK A01 T01600032  RH  042%=      5-min Rain = 0
KCA1 181844Z 25011KT 16/03 A2956 RMK A01 T01580032  RH  043%=      5-min Rain = 0
KCA1 181845Z 25009KT 16/03 A2956 RMK A01 T01570032  RH  043%=      5-min Rain = 0
KCA1 181846Z 25011KT 16/03 A2956 RMK A01 T01560032  RH  043%=      5-min Rain = 0
KCA1 181847Z 24010KT 16/03 A2955 RMK A01 T01550031  RH  043%=      5-min Rain = 0
KCA1 181848Z 26009KT 15/03 A2955 RMK A01 T01540032  RH  044%=      5-min Rain = 0
KCA1 181849Z 26010KT 15/03 A2955 RMK A01 T01540032  RH  044%=      5-min Rain = 0
KCA1 181850Z 26010KT 15/03 A2955 RMK A01 T01540032  RH  044%=      5-min Rain = 0
KCA1 181851Z 26011KT 15/03 A2954 RMK A01 T01530031  RH  044%=      5-min Rain = 0
KCA1 181852Z 27011KT 15/03 A2954 RMK A01 T01530031  RH  044%=      5-min Rain = 0
KCA1 181853Z 26009KT 15/03 A2954 RMK A01 T01530032  RH  044%=      5-min Rain = 0
KCA1 181854Z 26010KT 15/03 A2954 RMK A01 T01530033  RH  044%=      5-min Rain = 0
KCA1 181855Z 26010KT 16/03 A2954 RMK A01 T01550033  RH  044%=      5-min Rain = 0
KCA1 181856Z 27007KT 16/03 A2954 RMK A01 T01560034  RH  044%=      5-min Rain = 0
KCA1 181857Z 27009KT 16/04 A2954 RMK A01 T01590037  RH  044%=      5-min Rain = 0
KCA1 181858Z 27009KT 16/04 A2954 RMK A01 T01620037  RH  043%=      5-min Rain = 0
KCA1 181859Z 28010KT 16/04 A2954 RMK A01 T01640038  RH  043%=      5-min Rain = 0
KCA1 181900Z 28011KT 17/04 A2954 RMK A01 T01660037  RH  042%=      5-min Rain = 0
KCA1 181901Z 28009KT 17/04 A2954 RMK A01 T01670037  RH  042%=      5-min Rain = 0
KCA1 181902Z 29012KT 17/04 A2954 RMK A01 T01690038  RH  042%=      5-min Rain = 0
KCA1 181903Z 28010KT 17/04 A2954 RMK A01 T01690037  RH  041%=      5-min Rain = 0
KCA1 181904Z 28011KT 17/04 A2954 RMK A01 T01690037  RH  041%=      5-min Rain = 0
KCA1 181905Z 28008KT 17/04 A2954 RMK A01 T01710038  RH  041%=      5-min Rain = 0
KCA1 181906Z 27007KT 17/04 A2953 RMK A01 T01740042  RH  041%=      5-min Rain = 0
KCA1 181907Z 28009KT 18/04 A2953 RMK A01 T01780042  RH  041%=      5-min Rain = 0
KCA1 181908Z 27008KT 18/04 A2953 RMK A01 T01810043  RH  040%=      5-min Rain = 0
KCA1 181909Z 26010KT 18/04 A2953 RMK A01 T01840042  RH  039%=      5-min Rain = 0
KCA1 181910Z 26011KT 18/04 A2953 RMK A01 T01830038  RH  038%=      5-min Rain = 0
KCA1 181911Z 27011KT 18/04 A2953 RMK A01 T01810039  RH  039%=      5-min Rain = 0
KCA1 181912Z 26012KT 18/04 A2953 RMK A01 T01810039  RH  039%=      5-min Rain = 0
KCA1 181913Z 27011KT 18/04 A2953 RMK A01 T01810039  RH  039%=      5-min Rain = 0
KCA1 181914Z 27011KT 18/04 A2953 RMK A01 T01820040  RH  039%=      5-min Rain = 0
KCA1 181915Z 25014KT 18/04 A2953 RMK A01 T01830040  RH  039%=      5-min Rain = 0
KCA1 181916Z 26013G18KT 18/04 A2953 RMK A01 T01840039  RH  038%=      5-min Rain = 0
KCA1 181917Z 25018KT 18/04 A2953 RMK A01 T01840039  RH  038%=      5-min Rain = 0
KCA1 181918Z 26016KT 18/04 A2953 RMK A01 T01830036  RH  038%=      5-min Rain = 0
KCA1 181919Z 26016KT 18/04 A2953 RMK A01 T01810037  RH  038%=      5-min Rain = 0
KCA1 181920Z 26019G24KT 18/04 A2953 RMK A01 T01810037  RH  038%=      5-min Rain = 0
KCA1 181921Z 26019KT 18/04 A2953 RMK A01 T01800035  RH  038%=      5-min Rain = 0
KCA1 181922Z 26016KT 18/04 A2953 RMK A01 T01790036  RH  038%=      5-min Rain = 0
KCA1 181923Z 26016KT 18/04 A2953 RMK A01 T01800036  RH  038%=      5-min Rain = 0
KCA1 181924Z 26014KT 18/04 A2952 RMK A01 T01800037  RH  038%=      5-min Rain = 0
KCA1 181925Z 26014G19KT 18/04 A2952 RMK A01 T01830039  RH  038%=      5-min Rain = 0
KCA1 181926Z 26017KT 19/04 A2952 RMK A01 T01850037  RH  037%=      5-min Rain = 0
KCA1 181927Z 25016KT 18/04 A2952 RMK A01 T01840036  RH  037%=      5-min Rain = 0
KCA1 181928Z 25017KT 18/04 A2952 RMK A01 T01840036  RH  037%=      5-min Rain = 0
KCA1 181929Z 26014KT 19/04 A2952 RMK A01 T01860036  RH  037%=      5-min Rain = 0
KCA1 181930Z 26017G23KT 19/04 A2952 RMK A01 T01870036  RH  037%=      5-min Rain = 0
KCA1 181931Z 26017KT 19/04 A2952 RMK A01 T01870035  RH  036%=      5-min Rain = 0
KCA1 181932Z 26015KT 18/03 A2952 RMK A01 T01840033  RH  037%=      5-min Rain = 0
KCA1 181933Z 25018G23KT 19/04 A2952 RMK A01 T01850036  RH  037%=      5-min Rain = 0
KCA1 181934Z 26019KT 19/03 A2952 RMK A01 T01860033  RH  036%=      5-min Rain = 0
KCA1 181935Z 26017KT 19/03 A2952 RMK A01 T01850034  RH  037%=      5-min Rain = 0
KCA1 181936Z 26018G23KT 19/04 A2952 RMK A01 T01850035  RH  037%=      5-min Rain = 0
KCA1 181937Z 27015G22KT 18/03 A2952 RMK A01 T01840034  RH  037%=      5-min Rain = 0
KCA1 181938Z 27019KT 18/04 A2952 RMK A01 T01840035  RH  037%=      5-min Rain = 0
KCA1 181939Z 27017KT 18/03 A2952 RMK A01 T01840033  RH  037%=      5-min Rain = 0
KCA1 181940Z 27018KT 18/03 A2952 RMK A01 T01820034  RH  037%=      5-min Rain = 0
KCA1 181941Z 26019KT 18/04 A2952 RMK A01 T01820035  RH  037%=      5-min Rain = 0
KCA1 181942Z 26016G21KT 18/03 A2952 RMK A01 T01840034  RH  037%=      5-min Rain = 0
KCA1 181943Z 26019KT 19/03 A2952 RMK A01 T01850034  RH  037%=      5-min Rain = 0
KCA1 181944Z 27018KT 18/03 A2952 RMK A01 T01840032  RH  036%=      5-min Rain = 0
KCA1 181945Z 27020G25KT 18/03 A2952 RMK A01 T01830032  RH  037%=      5-min Rain = 0
KCA1 181946Z 27018KT 18/03 A2952 RMK A01 T01820032  RH  037%=      5-min Rain = 0
KCA1 181947Z 27013KT 18/03 A2952 RMK A01 T01820034  RH  037%=      5-min Rain = 0
KCA1 181948Z 25019KT 19/03 A2952 RMK A01 T01850034  RH  037%=      5-min Rain = 0
KCA1 181949Z 25016KT 19/03 A2952 RMK A01 T01860034  RH  036%=      5-min Rain = 0
KCA1 181950Z 26018G24KT 19/04 A2952 RMK A01 T01870035  RH  036%=      5-min Rain = 0
KCA1 181951Z 26018KT 19/03 A2952 RMK A01 T01870033  RH  036%=      5-min Rain = 0
KCA1 181952Z 26016KT 19/03 A2952 RMK A01 T01850033  RH  036%=      5-min Rain = 0
KCA1 181953Z 27019KT 19/03 A2951 RMK A01 T01850033  RH  036%=      5-min Rain = 0
KCA1 181954Z 27018KT 19/03 A2951 RMK A01 T01850034  RH  037%=      5-min Rain = 0
KCA1 181955Z 27015KT 19/03 A2951 RMK A01 T01850034  RH  037%=      5-min Rain = 0
KCA1 181956Z 26015KT 19/03 A2951 RMK A01 T01860033  RH  036%=      5-min Rain = 0
KCA1 181957Z 26015KT 19/03 A2951 RMK A01 T01870034  RH  036%=      5-min Rain = 0
KCA1 181958Z 26014KT 19/03 A2951 RMK A01 T01870034  RH  036%=      5-min Rain = 0
KCA1 181959Z 29016KT 19/03 A2951 RMK A01 T01880034  RH  036%=      5-min Rain = 0
KCA1 182000Z 29017KT 19/03 A2951 RMK A01 T01880032  RH  035%=      5-min Rain = 0
KCA1 182001Z 30019G24KT 19/03 A2951 RMK A01 T01860031  RH  035%=      5-min Rain = 0
KCA1 182002Z 28017G23KT 19/03 A2951 RMK A01 T01850032  RH  036%=      5-min Rain = 0
KCA1 182003Z 28013G22KT 18/03 A2951 RMK A01 T01840033  RH  036%=      5-min Rain = 0
KCA1 182004Z 27019KT 19/03 A2951 RMK A01 T01860031  RH  036%=      5-min Rain = 0
KCA1 182005Z 28021KT 19/03 A2951 RMK A01 T01860028  RH  035%=      5-min Rain = 0
KCA1 182006Z 28019KT 19/03 A2951 RMK A01 T01850028  RH  035%=      5-min Rain = 0
KCA1 182007Z 28020KT 18/03 A2951 RMK A01 T01840029  RH  036%=      5-min Rain = 0
KCA1 182008Z 27017KT 18/03 A2951 RMK A01 T01840031  RH  036%=      5-min Rain = 0
KCA1 182009Z 28015KT 18/03 A2951 RMK A01 T01840032  RH  036%=      5-min Rain = 0
KCA1 182010Z 27014KT 19/03 A2951 RMK A01 T01860033  RH  036%=      5-min Rain = 0
KCA1 182011Z 28016KT 19/03 A295 RMK A01 T01890034  RH  036%=      5-min Rain = 0
KCA1 182012Z 26014KT 19/03 A295 RMK A01 T01900033  RH  035%=      5-min Rain = 0
KCA1 182013Z 26015G21KT 19/03 A295 RMK A01 T01900032  RH  035%=      5-min Rain = 0
KCA1 182014Z 28016KT 19/03 A295 RMK A01 T01910031  RH  035%=      5-min Rain = 0
KCA1 182015Z 28014G19KT 19/03 A295 RMK A01 T01920032  RH  035%=      5-min Rain = 0
KCA1 182016Z 30015G22KT 19/03 A295 RMK A01 T01920032  RH  035%=      5-min Rain = 0
KCA1 182017Z 29013G18KT 19/03 A295 RMK A01 T01930033  RH  035%=      5-min Rain = 0
KCA1 182018Z 29014KT 19/03 A295 RMK A01 T01940033  RH  035%=      5-min Rain = 0
KCA1 182019Z 30015KT 19/03 A295 RMK A01 T01940033  RH  034%=      5-min Rain = 0
KCA1 182020Z 30014KT 20/03 A295 RMK A01 T01950034  RH  034%=      5-min Rain = 0
KCA1 182021Z 30015KT 20/03 A295 RMK A01 T01950034  RH  034%=      5-min Rain = 0
KCA1 182022Z 29016KT 20/03 A295 RMK A01 T01950033  RH  034%=      5-min Rain = 0
KCA1 182023Z 29017KT 19/03 A295 RMK A01 T01940032  RH  034%=      5-min Rain = 0
KCA1 182024Z 30015G21KT 19/03 A295 RMK A01 T01930031  RH  034%=      5-min Rain = 0
KCA1 182025Z 30016KT 19/03 A295 RMK A01 T01910031  RH  035%=      5-min Rain = 0
KCA1 182026Z 29014G21KT 19/03 A295 RMK A01 T01890031  RH  035%=      5-min Rain = 0
KCA1 182027Z 29019KT 19/03 A295 RMK A01 T01900030  RH  034%=      5-min Rain = 0
KCA1 182028Z 29018KT 19/03 A295 RMK A01 T01900028  RH  034%=      5-min Rain = 0
KCA1 182029Z 29016KT 19/03 A2951 RMK A01 T01890027  RH  034%=      5-min Rain = 0
KCA1 182030Z 28013KT 19/03 A2951 RMK A01 T01890027  RH  034%=      5-min Rain = 0
KCA1 182031Z 28014G20KT 19/03 A2951 RMK A01 T01910028  RH  034%=      5-min Rain = 0
KCA1 182032Z 28013G18KT 19/03 A2951 RMK A01 T01910026  RH  033%=      5-min Rain = 0
KCA1 182033Z 30016G22KT 19/03 A2951 RMK A01 T01910025  RH  033%=      5-min Rain = 0
KCA1 182034Z 31018KT 19/02 A2951 RMK A01 T01920024  RH  033%=      5-min Rain = 0
KCA1 182035Z 30017KT 19/02 A2951 RMK A01 T01910023  RH  033%=      5-min Rain = 0
KCA1 182036Z 30014KT 19/02 A2951 RMK A01 T01880021  RH  033%=      5-min Rain = 0
KCA1 182037Z 30014G20KT 19/02 A2951 RMK A01 T01870023  RH  034%=      5-min Rain = 0
KCA1 182038Z 29016KT 19/02 A2951 RMK A01 T01870023  RH  033%=      5-min Rain = 0
KCA1 182039Z 29014G19KT 19/02 A2951 RMK A01 T01870022  RH  033%=      5-min Rain = 0
KCA1 182040Z 29016KT 19/02 A2951 RMK A01 T01880023  RH  033%=      5-min Rain = 0
KCA1 182041Z 28014KT 19/02 A2951 RMK A01 T01880022  RH  033%=      5-min Rain = 0
KCA1 182042Z 29013KT 19/02 A2951 RMK A01 T01890023  RH  033%=      5-min Rain = 0
KCA1 182043Z 29013KT 19/02 A2951 RMK A01 T01890021  RH  032%=      5-min Rain = 0
KCA1 182044Z 29012KT 19/02 A2951 RMK A01 T01890022  RH  033%=      5-min Rain = 0
KCA1 182045Z 28013G18KT 19/02 A2951 RMK A01 T01900023  RH  033%=      5-min Rain = 0
KCA1 182046Z 30013KT 19/02 A2951 RMK A01 T01890023  RH  033%=      5-min Rain = 0
KCA1 182047Z 30014KT 19/02 A2951 RMK A01 T01880023  RH  033%=      5-min Rain = 0
KCA1 182048Z 31013KT 19/03 A2951 RMK A01 T01880025  RH  034%=      5-min Rain = 0
KCA1 182049Z 32015G20KT 19/03 A2951 RMK A01 T01880026  RH  034%=      5-min Rain = 0
KCA1 182050Z 32016KT 19/02 A2951 RMK A01 T01850021  RH  033%=      5-min Rain = 0
KCA1 182051Z 32017G22KT 18/02 A2951 RMK A01 T01800020  RH  034%=      5-min Rain = 0
KCA1 182052Z 32019KT 18/02 A2951 RMK A01 T01750016  RH  034%=      5-min Rain = 0
KCA1 182053Z 33016KT 17/02 A2952 RMK A01 T01720016  RH  035%=      5-min Rain = 0
KCA1 182054Z 33020G29KT 17/02 A2952 RMK A01 T01710017  RH  035%=      5-min Rain = 0
KCA1 182055Z 35027KT 17/02 A2952 RMK A01 T01650016  RH  036%=      5-min Rain = 0
KCA1 182056Z 35026KT 15/01 A2952 RMK A01 T01520013  RH  039%=      5-min Rain = 0
KCA1 182057Z 36023G30KT 14/01 A2953 RMK A01 T01420014  RH  042%=      5-min Rain = 0
KCA1 182058Z 35028G33KT 14/01 A2953 RMK A01 T01360013  RH  043%=      5-min Rain = 0
KCA1 182059Z 35025G30KT 13/01 A2953 RMK A01 T01310013  RH  044%=      5-min Rain = 0
KCA1 182100Z 35021KT 13/01 A2953 RMK A01 T01290014  RH  046%=      5-min Rain = 0
KCA1 182101Z 35023G29KT 13/02 A2953 RMK A01 T01290016  RH  046%=      5-min Rain = 0
KCA1 182102Z 34026KT 13/02 A2953 RMK A01 T01270015  RH  046%=      5-min Rain = 0
KCA1 182103Z 34021G26KT 12/01 A2953 RMK A01 T01240014  RH  047%=      5-min Rain = 0
KCA1 182104Z 35022KT 12/02 A2953 RMK A01 T01230015  RH  048%=      5-min Rain = 0
KCA1 182105Z 35021G27KT 12/02 A2954 RMK A01 T01220016  RH  048%=      5-min Rain = 0
KCA1 182106Z 35023KT 12/02 A2953 RMK A01 T01190015  RH  049%=      5-min Rain = 0
KCA1 182107Z 35025KT 12/02 A2953 RMK A01 T01160015  RH  050%=      5-min Rain = 0
KCA1 182108Z 34025KT 11/01 A2953 RMK A01 T01130014  RH  050%=      5-min Rain = 0
KCA1 182109Z 35026KT 11/01 A2953 RMK A01 T01110014  RH  051%=      5-min Rain = 0
KCA1 182110Z 35024G29KT 11/01 A2953 RMK A01 T01100013  RH  051%=      5-min Rain = 0
KCA1 182111Z 34023G29KT 11/01 A2953 RMK A01 T01090014  RH  052%=      5-min Rain = 0
KCA1 182112Z 35025G31KT 11/01 A2953 RMK A01 T01090014  RH  052%=      5-min Rain = 0
KCA1 182113Z 35026KT 11/01 A2953 RMK A01 T01080013  RH  052%=      5-min Rain = 0
KCA1 182114Z 35026KT 11/01 A2953 RMK A01 T01060013  RH  052%=      5-min Rain = 0
KCA1 182115Z 35024G30KT 11/01 A2953 RMK A01 T01060013  RH  053%=      5-min Rain = 0
KCA1 182116Z 35019KT 11/01 A2953 RMK A01 T01050014  RH  053%=      5-min Rain = 0
KCA1 182117Z 36020KT 11/02 A2954 RMK A01 T01060015  RH  053%=      5-min Rain = 0
KCA1 182118Z 36020KT 11/02 A2954 RMK A01 T01070015  RH  053%=      5-min Rain = 0
KCA1 182119Z 36023G29KT 11/02 A2954 RMK A01 T01070015  RH  053%=      5-min Rain = 0
KCA1 182120Z 35025G32KT 11/01 A2954 RMK A01 T01050012  RH  053%=      5-min Rain = 0
KCA1 182121Z 35026G31KT 10/01 A2954 RMK A01 T01020010  RH  053%=      5-min Rain = 0
KCA1 182122Z 36024G31KT 10/01 A2954 RMK A01 T00990009  RH  053%=      5-min Rain = 0
KCA1 182123Z 36025G30KT 10/01 A2954 RMK A01 T00970008  RH  054%=      5-min Rain = 0
KCA1 182124Z 34023G31KT 10/01 A2954 RMK A01 T00970009  RH  054%=      5-min Rain = 0
KCA1 182125Z 35023G29KT 10/01 A2954 RMK A01 T00960009  RH  055%=      5-min Rain = 0
KCA1 182126Z 35022G29KT 10/01 A2954 RMK A01 T00950010  RH  055%=      5-min Rain = 0
KCA1 182127Z 35022G27KT 10/01 A2954 RMK A01 T00960012  RH  056%=      5-min Rain = 0
KCA1 182128Z 35024G31KT 10/01 A2954 RMK A01 T00970013  RH  056%=      5-min Rain = 0
KCA1 182129Z 35022G27KT 10/01 A2955 RMK A01 T00970013  RH  056%=      5-min Rain = 0
KCA1 182130Z 35021KT 10/01 A2955 RMK A01 T00970014  RH  056%=      5-min Rain = 0
KCA1 182131Z 34020G27KT 10/01 A2955 RMK A01 T00980014  RH  056%=      5-min Rain = 0
KCA1 182132Z 34021G31KT 10/02 A2955 RMK A01 T00990016  RH  056%=      5-min Rain = 0
KCA1 182133Z 35024G32KT 10/02 A2956 RMK A01 T00990016  RH  056%=      5-min Rain = 0
KCA1 182134Z 34023G29KT 10/02 A2956 RMK A01 T00970015  RH  057%=      5-min Rain = 0
KCA1 182135Z 35023G28KT 10/02 A2956 RMK A01 T00960016  RH  057%=      5-min Rain = 0
KCA1 182136Z 34023G29KT 10/02 A2956 RMK A01 T00950017  RH  058%=      5-min Rain = 0
KCA1 182137Z 34026KT 09/02 A2956 RMK A01 T00940018  RH  059%=      5-min Rain = 0
KCA1 182138Z 34025G30KT 09/02 A2957 RMK A01 T00930018  RH  059%=      5-min Rain = 0
KCA1 182139Z 34026G32KT 09/02 A2957 RMK A01 T00910017  RH  060%=      5-min Rain = 0
KCA1 182140Z 35026G31KT 09/02 A2957 RMK A01 T00890016  RH  060%=      5-min Rain = 0
KCA1 182141Z 34023G29KT 09/02 A2957 RMK A01 T00870015  RH  060%=      5-min Rain = 0
KCA1 182142Z 34025G32KT 09/01 A2957 RMK A01 T00870014  RH  060%=      5-min Rain = 0
KCA1 182143Z 34024G29KT 09/01 A2957 RMK A01 T00850013  RH  060%=      5-min Rain = 0
KCA1 182144Z 34022G30KT 08/01 A2958 RMK A01 T00840012  RH  061%=      5-min Rain = 0
KCA1 182145Z 34022G27KT 08/01 A2958 RMK A01 T00830012  RH  061%=      5-min Rain = 0
KCA1 182146Z 33027KT 08/01 A2958 RMK A01 T00820012  RH  061%=      5-min Rain = 0
KCA1 182147Z 33024KT 08/01 A2958 RMK A01 T00810012  RH  062%=      5-min Rain = 0
KCA1 182148Z 33029G34KT 08/01 A2958 RMK A01 T00800013  RH  062%=      5-min Rain = 0
KCA1 182149Z 33029KT 08/01 A2959 RMK A01 T00800013  RH  063%=      5-min Rain = 0
KCA1 182150Z 34028KT 08/01 A2959 RMK A01 T00790013  RH  063%=      5-min Rain = 0
KCA1 182151Z 34026G32KT 08/01 A2959 RMK A01 T00790013  RH  063%=      5-min Rain = 0
KCA1 182152Z 34025KT 08/01 A296 RMK A01 T00790014  RH  063%=      5-min Rain = 0
KCA1 182153Z 34026G31KT 08/01 A296 RMK A01 T00770014  RH  064%=      5-min Rain = 0
KCA1 182154Z 34025G31KT 08/01 A296 RMK A01 T00760013  RH  065%=      5-min Rain = 0
KCA1 182155Z 33025KT 07/01 A296 RMK A01 T00740013  RH  065%=      5-min Rain = 0
KCA1 182156Z 32025KT 07/01 A2961 RMK A01 T00730012  RH  065%=      5-min Rain = 0
KCA1 182157Z 33026KT 07/01 A2961 RMK A01 T00720013  RH  066%=      5-min Rain = 0
KCA1 182158Z 33022G27KT 07/01 A2961 RMK A01 T00710013  RH  066%=      5-min Rain = 0
KCA1 182159Z 33023G28KT 07/01 A2961 RMK A01 T00710013  RH  067%=      5-min Rain = 0
KCA1 182200Z 33020G25KT 07/01 A2961 RMK A01 T00700013  RH  067%=      5-min Rain = 0
KCA1 182201Z 32024KT 07/01 A2961 RMK A01 T00700012  RH  067%=      5-min Rain = 0
KCA1 182202Z 33028G33KT 07/01 A2961 RMK A01 T00680010  RH  066%=      5-min Rain = 0
KCA1 182203Z 33028G33KT 07/01 A2961 RMK A01 T00650009  RH  067%=      5-min Rain = 0
KCA1 182204Z 33027G33KT 06/01 A2962 RMK A01 T00640009  RH  068%=      5-min Rain = 0
KCA1 182205Z 33025G33KT 06/01 A2962 RMK A01 T00630009  RH  068%=      5-min Rain = 0
KCA1 182206Z 33028G33KT 06/01 A2962 RMK A01 T00640009  RH  068%=      5-min Rain = 0
KCA1 182207Z 33023KT 06/01 A2962 RMK A01 T00630010  RH  068%=      5-min Rain = 0
KCA1 182208Z 34019G24KT 07/01 A2962 RMK A01 T00650012  RH  069%=      5-min Rain = 0
KCA1 182209Z 34026G32KT 07/01 A2962 RMK A01 T00680013  RH  068%=      5-min Rain = 0
KCA1 182210Z 35026KT 07/01 A2962 RMK A01 T00670010  RH  067%=      5-min Rain = 0
KCA1 182211Z 34028KT 07/01 A2962 RMK A01 T00660009  RH  067%=      5-min Rain = 0
KCA1 182212Z 33030G37KT 07/01 A2962 RMK A01 T00650009  RH  067%=      5-min Rain = 0
KCA1 182213Z 33031G38KT 06/01 A2962 RMK A01 T00640008  RH  068%=      5-min Rain = 0
KCA1 182214Z 33031G38KT 06/01 A2962 RMK A01 T00620008  RH  069%=      5-min Rain = 0
KCA1 182215Z 33030G35KT 06/01 A2962 RMK A01 T00610009  RH  069%=      5-min Rain = 0
KCA1 182216Z 34027G33KT 06/01 A2962 RMK A01 T00610010  RH  070%=      5-min Rain = 0
KCA1 182217Z 33029G34KT 06/01 A2962 RMK A01 T00620010  RH  070%=      5-min Rain = 0
KCA1 182218Z 33027G36KT 06/01 A2962 RMK A01 T00630011  RH  069%=      5-min Rain = 0
KCA1 182219Z 35029KT 06/01 A2962 RMK A01 T00620010  RH  069%=      5-min Rain = 0
KCA1 182220Z 34028G33KT 06/01 A2962 RMK A01 T00620010  RH  070%=      5-min Rain = 0
KCA1 182221Z 35030G37KT 06/01 A2962 RMK A01 T00610011  RH  070%=      5-min Rain = 0
KCA1 182222Z 35026G33KT 06/01 A2962 RMK A01 T00610010  RH  070%=      5-min Rain = 0
KCA1 182223Z 34027G34KT 06/01 A2962 RMK A01 T00600011  RH  071%=      5-min Rain = 0
KCA1 182224Z 34026G33KT 06/01 A2962 RMK A01 T00600011  RH  071%=      5-min Rain = 0
KCA1 182225Z 34027G37KT 06/01 A2962 RMK A01 T00590010  RH  071%=      5-min Rain = 0
KCA1 182226Z 34028KT 06/01 A2962 RMK A01 T00580010  RH  071%=      5-min Rain = 0
KCA1 182227Z 34029G34KT 06/01 A2962 RMK A01 T00570010  RH  072%=      5-min Rain = 0
KCA1 182228Z 34031G39KT 06/01 A2962 RMK A01 T00550010  RH  073%=      5-min Rain = 0
KCA1 182229Z 34028G35KT 05/01 A2962 RMK A01 T00540011  RH  074%=      5-min Rain = 0
KCA1 182230Z 35024G30KT 05/01 A2962 RMK A01 T00530011  RH  074%=      5-min Rain = 0
KCA1 182231Z 35024KT 05/01 A2962 RMK A01 T00530012  RH  075%=      5-min Rain = 0
KCA1 182232Z 34023G29KT 05/01 A2963 RMK A01 T00530012  RH  075%=      5-min Rain = 0
KCA1 182233Z 35028G34KT 05/01 A2963 RMK A01 T00540013  RH  075%=      5-min Rain = 0
KCA1 182234Z 34031KT 05/01 A2963 RMK A01 T00530012  RH  075%=      5-min Rain = 0
KCA1 182235Z 35025G31KT 05/01 A2963 RMK A01 T00510012  RH  076%=      5-min Rain = 0
KCA1 182236Z 36023G31KT 05/01 A2963 RMK A01 T00500012  RH  076%=      5-min Rain = 0
KCA1 182237Z 35024G29KT 05/01 A2963 RMK A01 T00510013  RH  076%=      5-min Rain = 0
KCA1 182238Z 34024KT 05/01 A2963 RMK A01 T00510013  RH  076%=      5-min Rain = 0
KCA1 182239Z 35024G29KT 05/01 A2963 RMK A01 T00510013  RH  076%=      5-min Rain = 0
KCA1 182240Z 35023G31KT 05/01 A2963 RMK A01 T00520014  RH  076%=      5-min Rain = 0
KCA1 182241Z 36025G33KT 05/01 A2963 RMK A01 T00520014  RH  076%=      5-min Rain = 0
KCA1 182242Z 36026G33KT 05/01 A2963 RMK A01 T00530014  RH  076%=      5-min Rain = 0
KCA1 182243Z 36026G32KT 05/01 A2963 RMK A01 T00520013  RH  076%=      5-min Rain = 0
KCA1 182244Z 36032G37KT 05/01 A2963 RMK A01 T00520013  RH  076%=      5-min Rain = 0
KCA1 182245Z 36029G36KT 05/01 A2963 RMK A01 T00510013  RH  076%=      5-min Rain = 0
KCA1 182246Z 36029G34KT 05/01 A2963 RMK A01 T00510014  RH  077%=      5-min Rain = 0
KCA1 182247Z 36031KT 05/01 A2963 RMK A01 T00500014  RH  077%=      5-min Rain = 0
KCA1 182248Z 36029G38KT 05/01 A2963 RMK A01 T00500014  RH  078%=      5-min Rain = 0
KCA1 182249Z 36025G30KT 05/01 A2963 RMK A01 T00490014  RH  078%=      5-min Rain = 0
KCA1 182250Z 35025G30KT 05/02 A2963 RMK A01 T00490015  RH  078%=      5-min Rain = 0
KCA1 182251Z 35024G31KT 05/02 A2963 RMK A01 T00500015  RH  078%=      5-min Rain = 0
KCA1 182252Z 35025G31KT 05/02 A2963 RMK A01 T00500015  RH  078%=      5-min Rain = 0
KCA1 182253Z 35025G30KT 05/02 A2963 RMK A01 T00500015  RH  078%=      5-min Rain = 0
KCA1 182254Z 36027KT 05/02 A2964 RMK A01 T00500016  RH  079%=      5-min Rain = 0
KCA1 182255Z 35023G31KT 05/02 A2964 RMK A01 T00490016  RH  079%=      5-min Rain = 0
KCA1 182256Z 36024G32KT 05/02 A2964 RMK A01 T00500016  RH  079%=      5-min Rain = 0
KCA1 182257Z 35024G29KT 05/02 A2964 RMK A01 T00500017  RH  079%=      5-min Rain = 0
KCA1 182258Z 36026G32KT 05/02 A2965 RMK A01 T00500017  RH  080%=      5-min Rain = 0
KCA1 182259Z 35026G34KT 05/02 A2965 RMK A01 T00490017  RH  080%=      5-min Rain = 0
KCA1 182300Z 35027G32KT 05/02 A2965 RMK A01 T00480017  RH  080%=      5-min Rain = 0
KCA1 182301Z 35024KT 05/02 A2965 RMK A01 T00480018  RH  081%=      5-min Rain = 0
KCA1 182302Z 35029KT 05/02 A2965 RMK A01 T00480018  RH  081%=      5-min Rain = 0
KCA1 182303Z 35025KT 05/02 A2966 RMK A01 T00480019  RH  081%=      5-min Rain = 0
KCA1 182304Z 35026G31KT 05/02 A2966 RMK A01 T00480019  RH  082%=      5-min Rain = 0
KCA1 182305Z 35024G29KT 05/02 A2966 RMK A01 T00480019  RH  082%=      5-min Rain = 0
KCA1 182306Z 35023G31KT 05/02 A2967 RMK A01 T00480019  RH  082%=      5-min Rain = 0
KCA1 182307Z 35023G28KT 05/02 A2967 RMK A01 T00480019  RH  082%=      5-min Rain = 0
KCA1 182308Z 36022G28KT 05/02 A2967 RMK A01 T00480020  RH  082%=      5-min Rain = 0
KCA1 182309Z 35024G29KT 05/02 A2967 RMK A01 T00480020  RH  082%=      5-min Rain = 0
KCA1 182310Z 35020G25KT 05/02 A2967 RMK A01 T00480020  RH  082%=      5-min Rain = 0
KCA1 182311Z 35023KT 05/02 A2967 RMK A01 T00480021  RH  082%=      5-min Rain = 0
KCA1 182312Z 35025G31KT 05/02 A2967 RMK A01 T00490021  RH  082%=      5-min Rain = 0
KCA1 182313Z 35021KT 05/02 A2967 RMK A01 T00480021  RH  083%=      5-min Rain = 0
KCA1 182314Z 35021G27KT 05/02 A2967 RMK A01 T00480021  RH  083%=      5-min Rain = 0
KCA1 182315Z 35020KT 05/02 A2967 RMK A01 T00480021  RH  083%=      5-min Rain = 0
KCA1 182316Z 34020G26KT 05/02 A2967 RMK A01 T00480021  RH  083%=      5-min Rain = 0
KCA1 182317Z 35024G29KT 05/02 A2967 RMK A01 T00480021  RH  083%=      5-min Rain = 0
KCA1 182318Z 35021KT 05/02 A2967 RMK A01 T00480022  RH  083%=      5-min Rain = 0
KCA1 182319Z 35022KT 05/02 A2967 RMK A01 T00480022  RH  083%=      5-min Rain = 0
KCA1 182320Z 35020G25KT 05/02 A2968 RMK A01 T00480022  RH  083%=      5-min Rain = 0
KCA1 182321Z 35019G27KT 05/02 A2968 RMK A01 T00480022  RH  083%=      5-min Rain = 0
KCA1 182322Z 35018KT 05/02 A2968 RMK A01 T00480023  RH  084%=      5-min Rain = 0
KCA1 182323Z 34019G28KT 05/02 A2968 RMK A01 T00480023  RH  084%=      5-min Rain = 0
KCA1 182324Z 34022G29KT 05/02 A2968 RMK A01 T00480023  RH  084%=      5-min Rain = 0
KCA1 182325Z 35022G27KT 05/02 A2968 RMK A01 T00480023  RH  084%=      5-min Rain = 0
KCA1 182326Z 34020G29KT 05/02 A2968 RMK A01 T00470023  RH  084%=      5-min Rain = 0
KCA1 182327Z 34018KT 05/02 A2969 RMK A01 T00480024  RH  084%=      5-min Rain = 0
KCA1 182328Z 34019G25KT 05/02 A2969 RMK A01 T00470024  RH  085%=      5-min Rain = 0
KCA1 182329Z 35023G28KT 05/02 A2969 RMK A01 T00470023  RH  085%=      5-min Rain = 0
KCA1 182330Z 34024G29KT 05/02 A2969 RMK A01 T00470023  RH  085%=      5-min Rain = 0
KCA1 182331Z 35021G29KT 05/02 A2969 RMK A01 T00470023  RH  085%=      5-min Rain = 0
KCA1 182332Z 35020G25KT 05/02 A2969 RMK A01 T00460024  RH  085%=      5-min Rain = 0
KCA1 182333Z 35018G23KT 05/02 A297 RMK A01 T00460023  RH  085%=      5-min Rain = 0
KCA1 182334Z 34018KT 05/02 A297 RMK A01 T00460023  RH  085%=      5-min Rain = 0
KCA1 182335Z 35019G27KT 05/02 A297 RMK A01 T00460023  RH  085%=      5-min Rain = 0
KCA1 182336Z 34012KT 05/02 A297 RMK A01 T00460023  RH  085%=      5-min Rain = 0
KCA1 182337Z 33015KT 05/02 A297 RMK A01 T00460023  RH  085%=      5-min Rain = 0
KCA1 182338Z 33019G25KT 05/02 A297 RMK A01 T00470023  RH  085%=      5-min Rain = 0
KCA1 182339Z 34013KT 05/02 A297 RMK A01 T00460022  RH  085%=      5-min Rain = 0
KCA1 182340Z 33013KT 05/02 A297 RMK A01 T00460022  RH  085%=      5-min Rain = 0
KCA1 182341Z 33017KT 05/02 A297 RMK A01 T00450021  RH  084%=      5-min Rain = 0
KCA1 182342Z 33015KT 04/02 A297 RMK A01 T00440020  RH  084%=      5-min Rain = 0
KCA1 182343Z 33016G21KT 04/02 A297 RMK A01 T00430020  RH  085%=      5-min Rain = 0
KCA1 182344Z 34018G24KT 04/02 A297 RMK A01 T00420018  RH  085%=      5-min Rain = 0
KCA1 182345Z 33017G25KT 04/02 A297 RMK A01 T00410018  RH  085%=      5-min Rain = 0
KCA1 182346Z 33021KT 04/02 A297 RMK A01 T00390018  RH  086%=      5-min Rain = 0
KCA1 182347Z 34018KT 04/02 A2971 RMK A01 T00390018  RH  086%=      5-min Rain = 0
KCA1 182348Z 33020G25KT 04/02 A2971 RMK A01 T00380018  RH  086%=      5-min Rain = 0
KCA1 182349Z 34021G27KT 04/02 A2971 RMK A01 T00380018  RH  087%=      5-min Rain = 0
KCA1 182350Z 34017G22KT 04/02 A2971 RMK A01 T00370017  RH  087%=      5-min Rain = 0
KCA1 182351Z 33020KT 04/02 A2971 RMK A01 T00370017  RH  087%=      5-min Rain = 0
KCA1 182352Z 34024KT 04/02 A2971 RMK A01 T00370017  RH  087%=      5-min Rain = 0
KCA1 182353Z 34022G27KT 04/02 A2972 RMK A01 T00360017  RH  087%=      5-min Rain = 0
KCA1 182354Z 34022KT 04/02 A2972 RMK A01 T00350016  RH  087%=      5-min Rain = 0
KCA1 182355Z 34021G29KT 04/02 A2972 RMK A01 T00350016  RH  088%=      5-min Rain = 0
KCA1 182356Z 34024G29KT 04/02 A2972 RMK A01 T00350017  RH  088%=      5-min Rain = 0
KCA1 182357Z 34024KT 04/02 A2972 RMK A01 T00350016  RH  088%=      5-min Rain = 0
KCA1 182358Z 34018G25KT 04/02 A2972 RMK A01 T00350016  RH  088%=      5-min Rain = 0
KCA1 182359Z 34018G25KT 03/02 A2972 RMK A01 T00340016  RH  088%=      5-min Rain = 0
KCA1 190000Z 34019G25KT 03/02 A2972 RMK A01 T00340016  RH  088%=      5-min Rain = 0
KCA1 190001Z 34021G26KT 03/02 A2972 RMK A01 T00340016  RH  088%=      5-min Rain = 0
KCA1 190002Z 34024KT 04/02 A2971 RMK A01 T00350016  RH  088%=      5-min Rain = 0
KCA1 190003Z 35024KT 03/02 A2971 RMK A01 T00340016  RH  088%=      5-min Rain = 0
KCA1 190004Z 35021G29KT 03/02 A2971 RMK A01 T00340016  RH  088%=      5-min Rain = 0
KCA1 190005Z 35023G29KT 03/02 A2971 RMK A01 T00340016  RH  088%=      5-min Rain = 0
KCA1 190006Z 35024G29KT 03/02 A2971 RMK A01 T00340016  RH  088%=      5-min Rain = 0
KCA1 190007Z 35026G31KT 03/02 A2971 RMK A01 T00340015  RH  088%=      5-min Rain = 0
KCA1 190008Z 34024G31KT 03/02 A2971 RMK A01 T00330015  RH  088%=      5-min Rain = 0
KCA1 190009Z 35027KT 03/01 A2971 RMK A01 T00320014  RH  088%=      5-min Rain = 0
KCA1 190010Z 35021KT 03/01 A2971 RMK A01 T00320014  RH  088%=      5-min Rain = 0
KCA1 190011Z 35024KT 03/01 A2971 RMK A01 T00310014  RH  088%=      5-min Rain = 0
KCA1 190012Z 34025G33KT 03/01 A2972 RMK A01 T00310013  RH  088%=      5-min Rain = 0
KCA1 190013Z 34022G27KT 03/01 A2972 RMK A01 T00300013  RH  088%=      5-min Rain = 0
KCA1 190014Z 34024KT 03/01 A2972 RMK A01 T00300013  RH  088%=      5-min Rain = 0
KCA1 190015Z 34021G27KT 03/01 A2973 RMK A01 T00300012  RH  088%=      5-min Rain = 0
KCA1 190016Z 35022G28KT 03/01 A2973 RMK A01 T00300012  RH  089%=      5-min Rain = 0
KCA1 190017Z 35019KT 03/01 A2973 RMK A01 T00290012  RH  089%=      5-min Rain = 0
KCA1 190018Z 34017KT 03/01 A2973 RMK A01 T00290012  RH  089%=      5-min Rain = 0
KCA1 190019Z 34019G25KT 03/01 A2973 RMK A01 T00290012  RH  089%=      5-min Rain = 0
KCA1 190020Z 34020G27KT 03/01 A2973 RMK A01 T00290012  RH  089%=      5-min Rain = 0
KCA1 190021Z 35022G29KT 03/01 A2973 RMK A01 T00290012  RH  089%=      5-min Rain = 0
KCA1 190022Z 33019G24KT 03/01 A2973 RMK A01 T00290012  RH  088%=      5-min Rain = 0
KCA1 190023Z 34020KT 03/01 A2973 RMK A01 T00290011  RH  088%=      5-min Rain = 0
KCA1 190024Z 35025G32KT 03/01 A2974 RMK A01 T00280011  RH  088%=      5-min Rain = 0
KCA1 190025Z 35023G32KT 03/01 A2973 RMK A01 T00290011  RH  088%=      5-min Rain = 0
KCA1 190026Z 35021G27KT 03/01 A2974 RMK A01 T00280011  RH  088%=      5-min Rain = 0
KCA1 190027Z 35021KT 03/01 A2974 RMK A01 T00280011  RH  088%=      5-min Rain = 0
KCA1 190028Z 35022G27KT 03/01 A2974 RMK A01 T00290011  RH  088%=      5-min Rain = 0
KCA1 190029Z 35025G31KT 03/01 A2974 RMK A01 T00280011  RH  088%=      5-min Rain = 0
KCA1 190030Z 35026G31KT 03/01 A2974 RMK A01 T00290011  RH  088%=      5-min Rain = 0
KCA1 190031Z 35019G25KT 03/01 A2974 RMK A01 T00290010  RH  088%=      5-min Rain = 0
KCA1 190032Z 34019G25KT 03/01 A2974 RMK A01 T00290010  RH  088%=      5-min Rain = 0
KCA1 190033Z 35021KT 03/01 A2974 RMK A01 T00290010  RH  088%=      5-min Rain = 0
KCA1 190034Z 35017KT 03/01 A2974 RMK A01 T00290010  RH  087%=      5-min Rain = 0
KCA1 190035Z 35013KT 03/01 A2974 RMK A01 T00290010  RH  087%=      5-min Rain = 0
KCA1 190036Z 35017G26KT 03/01 A2974 RMK A01 T00280009  RH  087%=      5-min Rain = 0
KCA1 190037Z 35021KT 03/01 A2974 RMK A01 T00290009  RH  087%=      5-min Rain = 0
KCA1 190038Z 34022G27KT 03/01 A2975 RMK A01 T00280009  RH  087%=      5-min Rain = 0
KCA1 190039Z 35019KT 03/01 A2975 RMK A01 T00290009  RH  087%=      5-min Rain = 0
KCA1 190040Z 34017G24KT 03/01 A2975 RMK A01 T00290009  RH  087%=      5-min Rain = 0
KCA1 190041Z 35024G29KT 03/01 A2975 RMK A01 T00290009  RH  087%=      5-min Rain = 0
KCA1 190042Z 34024G32KT 03/01 A2975 RMK A01 T00280008  RH  087%=      5-min Rain = 0
KCA1 190043Z 34025KT 03/01 A2975 RMK A01 T00280008  RH  087%=      5-min Rain = 0
KCA1 190044Z 34023G28KT 03/01 A2975 RMK A01 T00280008  RH  087%=      5-min Rain = 0
KCA1 190045Z 35023KT 03/01 A2975 RMK A01 T00280008  RH  087%=      5-min Rain = 0
KCA1 190046Z 34025G30KT 03/01 A2975 RMK A01 T00270008  RH  087%=      5-min Rain = 0
KCA1 190047Z 34022G27KT 03/01 A2975 RMK A01 T00270008  RH  087%=      5-min Rain = 0
KCA1 190048Z 34024G30KT 03/01 A2975 RMK A01 T00270008  RH  087%=      5-min Rain = 0
KCA1 190049Z 35025G31KT 03/01 A2975 RMK A01 T00270008  RH  087%=      5-min Rain = 0
KCA1 190050Z 35028G33KT 03/01 A2975 RMK A01 T00260007  RH  087%=      5-min Rain = 0
KCA1 190051Z 35025G30KT 03/01 A2975 RMK A01 T00260006  RH  087%=      5-min Rain = 0
KCA1 190052Z 35025G31KT 03/01 A2975 RMK A01 T00260006  RH  087%=      5-min Rain = 0
KCA1 190053Z 34023KT 03/01 A2975 RMK A01 T00250006  RH  087%=      5-min Rain = 0
KCA1 190054Z 35025G30KT 03/01 A2975 RMK A01 T00250005  RH  087%=      5-min Rain = 0
KCA1 190055Z 35025G31KT 03/01 A2975 RMK A01 T00250005  RH  086%=      5-min Rain = 0
KCA1 190056Z 35024KT 03/00 A2975 RMK A01 T00250004  RH  086%=      5-min Rain = 0
KCA1 190057Z 35026G36KT 02/00 A2976 RMK A01 T00240004  RH  086%=      5-min Rain = 0
KCA1 190058Z 35025KT 02/00 A2976 RMK A01 T00240003  RH  086%=      5-min Rain = 0
KCA1 190059Z 35025G32KT 02/00 A2976 RMK A01 T00240003  RH  086%=      5-min Rain = 0
KCA1 190100Z 35021G30KT 02/00 A2976 RMK A01 T00240003  RH  086%=      5-min Rain = 0
KCA1 190101Z 34021G27KT 03/00 A2976 RMK A01 T00250003  RH  086%=      5-min Rain = 0
KCA1 190102Z 35022KT 03/00 A2976 RMK A01 T00250003  RH  086%=      5-min Rain = 0
KCA1 190103Z 34026G33KT 02/00 A2976 RMK A01 T00240003  RH  086%=      5-min Rain = 0
KCA1 190104Z 35026G32KT 02/00 A2976 RMK A01 T00240002  RH  085%=      5-min Rain = 0
KCA1 190105Z 35025G33KT 02/00 A2976 RMK A01 T00240001  RH  085%=      5-min Rain = 0
KCA1 190106Z 34025G30KT 02/00 A2976 RMK A01 T00230001  RH  085%=      5-min Rain = 0
KCA1 190107Z 35026G32KT 02/00 A2977 RMK A01 T00230000  RH  085%=      5-min Rain = 0
KCA1 190108Z 35028G33KT 02/00 A2977 RMK A01 T002200-0  RH  085%=      5-min Rain = 0
KCA1 190109Z 35025G31KT 02/00 A2977 RMK A01 T002200-0  RH  085%=      5-min Rain = 0
KCA1 190110Z 35024KT 02/M00 A2977 RMK A01 T00221001  RH  085%=      5-min Rain = 0
KCA1 190111Z 35025G31KT 02/M00 A2977 RMK A01 T00221001  RH  085%=      5-min Rain = 0
KCA1 190112Z 35026G32KT 02/M00 A2977 RMK A01 T00221001  RH  085%=      5-min Rain = 0
KCA1 190113Z 35023G30KT 02/M00 A2977 RMK A01 T00221001  RH  085%=      5-min Rain = 0
KCA1 190114Z 35022KT 02/M00 A2978 RMK A01 T00221001  RH  085%=      5-min Rain = 0
KCA1 190115Z 35022G29KT 02/M00 A2977 RMK A01 T00221001  RH  085%=      5-min Rain = 0
KCA1 190116Z 35022G27KT 02/M00 A2978 RMK A01 T00221001  RH  085%=      5-min Rain = 0
KCA1 190117Z 35029G34KT 02/M00 A2978 RMK A01 T00221001  RH  085%=      5-min Rain = 0
KCA1 190118Z 34029KT 02/M00 A2978 RMK A01 T00211001  RH  085%=      5-min Rain = 0
KCA1 190119Z 35022G27KT 02/M00 A2978 RMK A01 T00211002  RH  085%=      5-min Rain = 0
KCA1 190120Z 34027G35KT 02/M00 A2978 RMK A01 T00211002  RH  085%=      5-min Rain = 0
KCA1 190121Z 35027G34KT 02/M00 A2979 RMK A01 T00211002  RH  085%=      5-min Rain = 0
KCA1 190122Z 35026G31KT 02/M00 A2979 RMK A01 T00201003  RH  085%=      5-min Rain = 0
KCA1 190123Z 34029G35KT 02/M00 A2979 RMK A01 T00201003  RH  085%=      5-min Rain = 0
KCA1 190124Z 35025G33KT 02/M00 A2979 RMK A01 T00201004  RH  084%=      5-min Rain = 0
KCA1 190125Z 35025KT 02/M00 A2979 RMK A01 T00201004  RH  084%=      5-min Rain = 0
KCA1 190126Z 36023KT 02/M00 A298 RMK A01 T00201004  RH  084%=      5-min Rain = 0
KCA1 190127Z 35021G26KT 02/M00 A298 RMK A01 T00201004  RH  084%=      5-min Rain = 0
KCA1 190128Z 35023G30KT 02/M00 A298 RMK A01 T00201004  RH  084%=      5-min Rain = 0
KCA1 190129Z 35021G28KT 02/M00 A298 RMK A01 T00201004  RH  084%=      5-min Rain = 0
KCA1 190130Z 35022KT 02/M01 A298 RMK A01 T00201005  RH  084%=      5-min Rain = 0
KCA1 190131Z 34023G28KT 02/M01 A2981 RMK A01 T00201005  RH  084%=      5-min Rain = 0
KCA1 190132Z 35024KT 02/M01 A298 RMK A01 T00201005  RH  084%=      5-min Rain = 0
KCA1 190133Z 34022KT 02/M01 A2981 RMK A01 T00201005  RH  084%=      5-min Rain = 0
KCA1 190134Z 34023G29KT 02/M01 A2981 RMK A01 T00201005  RH  084%=      5-min Rain = 0
KCA1 190135Z 35021G26KT 02/M01 A2981 RMK A01 T00191005  RH  084%=      5-min Rain = 0
KCA1 190136Z 34025G32KT 02/M01 A2981 RMK A01 T00191005  RH  084%=      5-min Rain = 0
KCA1 190137Z 35026G33KT 02/M01 A2981 RMK A01 T00191005  RH  084%=      5-min Rain = 0
KCA1 190138Z 34020G28KT 02/M00 A2981 RMK A01 T00191004  RH  084%=      5-min Rain = 0
KCA1 190139Z 35023G30KT 02/M01 A2981 RMK A01 T00191005  RH  085%=      5-min Rain = 0
KCA1 190140Z 34020G30KT 02/M00 A2981 RMK A01 T00191004  RH  085%=      5-min Rain = 0
KCA1 190141Z 34020KT 02/M00 A2982 RMK A01 T00191004  RH  085%=      5-min Rain = 0
KCA1 190142Z 34022G29KT 02/M00 A2982 RMK A01 T00191004  RH  085%=      5-min Rain = 0
KCA1 190143Z 34021G27KT 02/M00 A2982 RMK A01 T00191004  RH  085%=      5-min Rain = 0
KCA1 190144Z 34020G25KT 02/M00 A2982 RMK A01 T00191004  RH  085%=      5-min Rain = 0
KCA1 190145Z 34023G30KT 02/M00 A2982 RMK A01 T00191004  RH  085%=      5-min Rain = 0
KCA1 190146Z 34023G29KT 02/M00 A2982 RMK A01 T00191004  RH  085%=      5-min Rain = 0
KCA1 190147Z 33027G33KT 02/M01 A2982 RMK A01 T00191005  RH  084%=      5-min Rain = 0
KCA1 190148Z 34026G31KT 02/M01 A2982 RMK A01 T00181007  RH  084%=      5-min Rain = 0
KCA1 190149Z 34026G32KT 02/M01 A2982 RMK A01 T00181008  RH  083%=      5-min Rain = 0
KCA1 190150Z 34021KT 02/M01 A2983 RMK A01 T00171008  RH  083%=      5-min Rain = 0
KCA1 190151Z 34023KT 02/M01 A2982 RMK A01 T00181008  RH  083%=      5-min Rain = 0
KCA1 190152Z 34021G28KT 02/M01 A2982 RMK A01 T00171008  RH  083%=      5-min Rain = 0
KCA1 190153Z 35025G33KT 02/M01 A2982 RMK A01 T00171008  RH  083%=      5-min Rain = 0
KCA1 190154Z 34026G31KT 02/M01 A2983 RMK A01 T00171009  RH  083%=      5-min Rain = 0
KCA1 190155Z 35021G27KT 02/M01 A2983 RMK A01 T00161009  RH  083%=      5-min Rain = 0
KCA1 190156Z 34020KT 02/M01 A2983 RMK A01 T00161009  RH  083%=      5-min Rain = 0
KCA1 190157Z 35025KT 02/M01 A2983 RMK A01 T00161009  RH  084%=      5-min Rain = 0
KCA1 190158Z 34021G28KT 02/M01 A2983 RMK A01 T00161008  RH  084%=      5-min Rain = 0
KCA1 190159Z 35026G35KT 02/M01 A2983 RMK A01 T00161008  RH  084%=      5-min Rain = 0
KCA1 190200Z 34021KT 02/M01 A2983 RMK A01 T00161008  RH  084%=      5-min Rain = 0
KCA1 190201Z 34023G28KT 02/M01 A2983 RMK A01 T00161007  RH  085%=      5-min Rain = 0
KCA1 190202Z 34025KT 02/M01 A2983 RMK A01 T00161007  RH  085%=      5-min Rain = 0
KCA1 190203Z 34020G25KT 02/M01 A2983 RMK A01 T00161007  RH  085%=      5-min Rain = 0
KCA1 190204Z 34018G25KT 02/M01 A2984 RMK A01 T00161007  RH  085%=      5-min Rain = 0
KCA1 190205Z 34023KT 02/M01 A2984 RMK A01 T00161007  RH  085%=      5-min Rain = 0
KCA1 190206Z 34023G31KT 02/M01 A2984 RMK A01 T00161007  RH  085%=      5-min Rain = 0
KCA1 190207Z 34026G31KT 02/M01 A2984 RMK A01 T00161007  RH  085%=      5-min Rain = 0
KCA1 190208Z 35025G30KT 02/M01 A2984 RMK A01 T00151007  RH  085%=      5-min Rain = 0
KCA1 190209Z 34021G28KT 02/M01 A2984 RMK A01 T00151008  RH  085%=      5-min Rain = 0
KCA1 190210Z 35019KT 02/M01 A2985 RMK A01 T00151007  RH  085%=      5-min Rain = 0
KCA1 190211Z 35024G29KT 02/M01 A2985 RMK A01 T00151008  RH  085%=      5-min Rain = 0
KCA1 190212Z 35020G26KT 02/M01 A2985 RMK A01 T00151009  RH  085%=      5-min Rain = 0
KCA1 190213Z 35024G29KT 01/M01 A2985 RMK A01 T00141009  RH  084%=      5-min Rain = 0
KCA1 190214Z 35021G26KT 01/M01 A2986 RMK A01 T00141010  RH  084%=      5-min Rain = 0
KCA1 190215Z 33019G28KT 01/M01 A2986 RMK A01 T00141010  RH  084%=      5-min Rain = 0
KCA1 190216Z 34025G32KT 01/M01 A2986 RMK A01 T00141009  RH  085%=      5-min Rain = 0
KCA1 190217Z 34021G28KT 01/M01 A2986 RMK A01 T00141009  RH  085%=      5-min Rain = 0
KCA1 190218Z 35020KT 01/M01 A2986 RMK A01 T00131010  RH  085%=      5-min Rain = 0
KCA1 190219Z 34019G25KT 01/M01 A2987 RMK A01 T00131010  RH  085%=      5-min Rain = 0
KCA1 190220Z 34023G28KT 01/M01 A2987 RMK A01 T00121010  RH  085%=      5-min Rain = 0
KCA1 190221Z 35019G25KT 01/M01 A2987 RMK A01 T00121011  RH  085%=      5-min Rain = 0
KCA1 190222Z 34016G21KT 01/M01 A2987 RMK A01 T00121011  RH  085%=      5-min Rain = 0
KCA1 190223Z 34022G27KT 01/M01 A2987 RMK A01 T00121011  RH  085%=      5-min Rain = 0
KCA1 190224Z 34026KT 01/M01 A2987 RMK A01 T00121012  RH  084%=      5-min Rain = 0
KCA1 190225Z 34025G32KT 01/M01 A2987 RMK A01 T00121012  RH  084%=      5-min Rain = 0
KCA1 190226Z 34020G25KT 01/M01 A2988 RMK A01 T00111012  RH  084%=      5-min Rain = 0
KCA1 190227Z 34020G25KT 01/M01 A2988 RMK A01 T00111012  RH  085%=      5-min Rain = 0
KCA1 190228Z 33020KT 01/M01 A2988 RMK A01 T00111011  RH  085%=      5-min Rain = 0
KCA1 190229Z 34020G26KT 01/M01 A2988 RMK A01 T00111010  RH  085%=      5-min Rain = 0
KCA1 190230Z 33017G23KT 01/M01 A2988 RMK A01 T00111010  RH  086%=      5-min Rain = 0
KCA1 190231Z 33019KT 01/M01 A2988 RMK A01 T00111010  RH  086%=      5-min Rain = 0
KCA1 190232Z 33020G25KT 01/M01 A2988 RMK A01 T00111009  RH  087%=      5-min Rain = 0
KCA1 190233Z 33020KT 01/M01 A2988 RMK A01 T00101010  RH  087%=      5-min Rain = 0
KCA1 190234Z 34026G31KT 01/M01 A2988 RMK A01 T00101010  RH  086%=      5-min Rain = 0
KCA1 190235Z 34027KT 01/M01 A2988 RMK A01 T00101012  RH  086%=      5-min Rain = 0
KCA1 190236Z 34024G29KT 01/M01 A2988 RMK A01 T00091013  RH  085%=      5-min Rain = 0
KCA1 190237Z 34022KT 01/M01 A2988 RMK A01 T00081013  RH  085%=      5-min Rain = 0
KCA1 190238Z 34020G25KT 01/M01 A2989 RMK A01 T00081013  RH  085%=      5-min Rain = 0
KCA1 190239Z 34024G29KT 01/M01 A2989 RMK A01 T00081014  RH  086%=      5-min Rain = 0
KCA1 190240Z 34024G31KT 01/M01 A2989 RMK A01 T00071014  RH  085%=      5-min Rain = 0
KCA1 190241Z 34025G35KT 01/M02 A2989 RMK A01 T00071015  RH  085%=      5-min Rain = 0
KCA1 190242Z 34026G32KT 01/M02 A2989 RMK A01 T00071015  RH  085%=      5-min Rain = 0
KCA1 190243Z 35021G27KT 01/M02 A2989 RMK A01 T00071016  RH  085%=      5-min Rain = 0
KCA1 190244Z 34021G26KT 01/M02 A2989 RMK A01 T00071016  RH  085%=      5-min Rain = 0
KCA1 190245Z 34022G28KT 01/M02 A2989 RMK A01 T00071016  RH  085%=      5-min Rain = 0
KCA1 190246Z 35023G33KT 01/M02 A2989 RMK A01 T00071016  RH  085%=      5-min Rain = 0
KCA1 190247Z 34022KT 01/M02 A2989 RMK A01 T00071016  RH  085%=      5-min Rain = 0
KCA1 190248Z 35020G25KT 01/M02 A2989 RMK A01 T00071016  RH  084%=      5-min Rain = 0
KCA1 190249Z 34021G27KT 01/M02 A2989 RMK A01 T00071017  RH  084%=      5-min Rain = 0
KCA1 190250Z 35026G34KT 01/M02 A2989 RMK A01 T00081016  RH  084%=      5-min Rain = 0
KCA1 190251Z 35026G31KT 01/M02 A2989 RMK A01 T00071017  RH  084%=      5-min Rain = 0
KCA1 190252Z 35020KT 01/M02 A2989 RMK A01 T00081017  RH  084%=      5-min Rain = 0
KCA1 190253Z 35021G26KT 01/M02 A2989 RMK A01 T00071017  RH  084%=      5-min Rain = 0
KCA1 190254Z 34020G25KT 01/M02 A2989 RMK A01 T00081016  RH  084%=      5-min Rain = 0
KCA1 190255Z 35019G26KT 01/M02 A2989 RMK A01 T00081016  RH  084%=      5-min Rain = 0
KCA1 190256Z 35018G24KT 01/M02 A299 RMK A01 T00071016  RH  084%=      5-min Rain = 0
KCA1 190257Z 35026G33KT 01/M02 A299 RMK A01 T00071016  RH  084%=      5-min Rain = 0
KCA1 190258Z 35023G29KT 01/M02 A299 RMK A01 T00081016  RH  084%=      5-min Rain = 0
KCA1 190259Z 34023G31KT 01/M02 A299 RMK A01 T00071015  RH  085%=      5-min Rain = 0
KCA1 190300Z 33023G28KT 01/M02 A299 RMK A01 T00071016  RH  084%=      5-min Rain = 0
KCA1 190301Z 34022KT 01/M02 A299 RMK A01 T00081016  RH  084%=      5-min Rain = 0
KCA1 190302Z 34023G28KT 01/M02 A299 RMK A01 T00081016  RH  084%=      5-min Rain = 0
KCA1 190303Z 35022G30KT 01/M02 A299 RMK A01 T00071016  RH  084%=      5-min Rain = 0
KCA1 190304Z 35022G27KT 01/M02 A299 RMK A01 T00071017  RH  084%=      5-min Rain = 0
KCA1 190305Z 34018KT 01/M02 A299 RMK A01 T00081016  RH  084%=      5-min Rain = 0
KCA1 190306Z 34018KT 01/M02 A2991 RMK A01 T00081016  RH  084%=      5-min Rain = 0
KCA1 190307Z 34021G28KT 01/M02 A299 RMK A01 T00071015  RH  085%=      5-min Rain = 0
KCA1 190308Z 34020G29KT 01/M02 A2991 RMK A01 T00071016  RH  085%=      5-min Rain = 0
KCA1 190309Z 35025G30KT 01/M02 A2991 RMK A01 T00071016  RH  085%=      5-min Rain = 0
KCA1 190310Z 34019G24KT 01/M02 A2991 RMK A01 T00061017  RH  084%=      5-min Rain = 0
KCA1 190311Z 34019G27KT 01/M02 A2991 RMK A01 T00061017  RH  085%=      5-min Rain = 0
KCA1 190312Z 34022G31KT 01/M02 A2991 RMK A01 T00061017  RH  084%=      5-min Rain = 0
KCA1 190313Z 34024G29KT 01/M02 A2991 RMK A01 T00061018  RH  084%=      5-min Rain = 0
KCA1 190314Z 34027G38KT 01/M02 A2991 RMK A01 T00051019  RH  084%=      5-min Rain = 0
KCA1 190315Z 35028G33KT 01/M02 A2991 RMK A01 T00051020  RH  083%=      5-min Rain = 0
KCA1 190316Z 34028G38KT 01/M02 A2991 RMK A01 T00051021  RH  083%=      5-min Rain = 0
KCA1 190317Z 34026KT 01/M02 A2991 RMK A01 T00051021  RH  082%=      5-min Rain = 0
KCA1 190318Z 35020KT 01/M02 A2991 RMK A01 T00051021  RH  082%=      5-min Rain = 0
KCA1 190319Z 35022G29KT 01/M02 A2991 RMK A01 T00051021  RH  082%=      5-min Rain = 0
KCA1 190320Z 34024KT 01/M02 A2992 RMK A01 T00061021  RH  082%=      5-min Rain = 0
KCA1 190321Z 35023G29KT 01/M02 A2992 RMK A01 T00051022  RH  082%=      5-min Rain = 0
KCA1 190322Z 34020G27KT 01/M02 A2992 RMK A01 T00051022  RH  082%=      5-min Rain = 0
KCA1 190323Z 34020G26KT 01/M02 A2992 RMK A01 T00051021  RH  082%=      5-min Rain = 0
KCA1 190324Z 35021G27KT 01/M02 A2992 RMK A01 T00061021  RH  082%=      5-min Rain = 0
KCA1 190325Z 34022G28KT 01/M02 A2992 RMK A01 T00061021  RH  082%=      5-min Rain = 0
KCA1 190326Z 35022G27KT 01/M02 A2992 RMK A01 T00061021  RH  083%=      5-min Rain = 0
KCA1 190327Z 34019G27KT 01/M02 A2992 RMK A01 T00061020  RH  083%=      5-min Rain = 0
KCA1 190328Z 34024G30KT 01/M02 A2992 RMK A01 T00061020  RH  083%=      5-min Rain = 0
KCA1 190329Z 34020G27KT 01/M02 A2992 RMK A01 T00051020  RH  083%=      5-min Rain = 0
KCA1 190330Z 35023G29KT 01/M02 A2992 RMK A01 T00051020  RH  083%=      5-min Rain = 0
KCA1 190331Z 35025G31KT 01/M02 A2992 RMK A01 T00051020  RH  083%=      5-min Rain = 0
KCA1 190332Z 35021KT 01/M02 A2993 RMK A01 T00051020  RH  083%=      5-min Rain = 0
KCA1 190333Z 34021G29KT 00/M02 A2993 RMK A01 T00041020  RH  084%=      5-min Rain = 0
KCA1 190334Z 34023G31KT 00/M02 A2993 RMK A01 T00041020  RH  084%=      5-min Rain = 0
KCA1 190335Z 34024G30KT 00/M02 A2993 RMK A01 T00041021  RH  083%=      5-min Rain = 0
KCA1 190336Z 34022G31KT 00/M02 A2993 RMK A01 T00041021  RH  083%=      5-min Rain = 0
KCA1 190337Z 35027G33KT 00/M02 A2993 RMK A01 T00041022  RH  083%=      5-min Rain = 0
KCA1 190338Z 34027G32KT 00/M02 A2993 RMK A01 T00031022  RH  083%=      5-min Rain = 0
KCA1 190339Z 35025G33KT 00/M02 A2993 RMK A01 T00031022  RH  083%=      5-min Rain = 0
KCA1 190340Z 35023G28KT 00/M02 A2993 RMK A01 T00041022  RH  083%=      5-min Rain = 0
KCA1 190341Z 35025G32KT 00/M02 A2993 RMK A01 T00031022  RH  083%=      5-min Rain = 0
KCA1 190342Z 35025G32KT 00/M02 A2993 RMK A01 T00031022  RH  083%=      5-min Rain = 0
KCA1 190343Z 35026G31KT 00/M02 A2993 RMK A01 T00031023  RH  083%=      5-min Rain = 0
KCA1 190344Z 35023KT 00/M02 A2994 RMK A01 T00031023  RH  083%=      5-min Rain = 0
KCA1 190345Z 35023G29KT 00/M02 A2993 RMK A01 T00031022  RH  083%=      5-min Rain = 0
KCA1 190346Z 36024KT 00/M02 A2994 RMK A01 T00031022  RH  083%=      5-min Rain = 0
KCA1 190347Z 35025G30KT 00/M02 A2994 RMK A01 T00031023  RH  083%=      5-min Rain = 0
KCA1 190348Z 35021G26KT 00/M02 A2994 RMK A01 T00031022  RH  083%=      5-min Rain = 0
KCA1 190349Z 35021G27KT 00/M02 A2994 RMK A01 T00031022  RH  083%=      5-min Rain = 0
KCA1 190350Z 35023KT 00/M02 A2994 RMK A01 T00031022  RH  084%=      5-min Rain = 0
KCA1 190351Z 35023G30KT 00/M02 A2994 RMK A01 T00031022  RH  084%=      5-min Rain = 0
KCA1 190352Z 35023G29KT 00/M02 A2994 RMK A01 T00021022  RH  083%=      5-min Rain = 0
KCA1 190353Z 35020KT 00/M02 A2994 RMK A01 T00021022  RH  084%=      5-min Rain = 0
KCA1 190354Z 35019KT 00/M02 A2994 RMK A01 T00021022  RH  084%=      5-min Rain = 0
KCA1 190355Z 34020G25KT 00/M02 A2994 RMK A01 T00021021  RH  084%=      5-min Rain = 0
KCA1 190356Z 35024G29KT 00/M02 A2994 RMK A01 T00021021  RH  084%=      5-min Rain = 0
KCA1 190357Z 35020KT 00/M02 A2994 RMK A01 T00021021  RH  085%=      5-min Rain = 0
KCA1 190358Z 35022G27KT 00/M02 A2994 RMK A01 T00021021  RH  085%=      5-min Rain = 0
KCA1 190359Z 34025G30KT 00/M02 A2994 RMK A01 T00021021  RH  085%=      5-min Rain = 0
KCA1 190400Z 35025G31KT 00/M02 A2994 RMK A01 T00021021  RH  085%=      5-min Rain = 0
KCA1 190401Z 34026G33KT 00/M02 A2994 RMK A01 T00011022  RH  085%=      5-min Rain = 0
KCA1 190402Z 34022G29KT 00/M02 A2995 RMK A01 T00011022  RH  084%=      5-min Rain = 0
KCA1 190403Z 35026G31KT 00/M02 A2995 RMK A01 T00011022  RH  085%=      5-min Rain = 0
KCA1 190404Z 35023G29KT 00/M02 A2995 RMK A01 T00011022  RH  085%=      5-min Rain = 0
KCA1 190405Z 35029G34KT 00/02 A2995 RMK A01 T00000-23  RH  085%=      5-min Rain = 0
KCA1 190406Z 35026G31KT 00/02 A2995 RMK A01 T00-00-23  RH  085%=      5-min Rain = 0
KCA1 190407Z 35026G33KT 00/02 A2995 RMK A01 T00-00-23  RH  085%=      5-min Rain = 0
KCA1 190408Z 35025G37KT 00/02 A2995 RMK A01 T00-00-23  RH  085%=      5-min Rain = 0
KCA1 190409Z 35029G36KT M00/M03 A2995 RMK A01 T10011025  RH  084%=      5-min Rain = 0
KCA1 190410Z 35030G41KT M00/M03 A2995 RMK A01 T10011027  RH  082%=      5-min Rain = 0
KCA1 190411Z 36033G40KT M00/M03 A2995 RMK A01 T10011030  RH  081%=      5-min Rain = 0
KCA1 190412Z 36030G36KT M00/M03 A2995 RMK A01 T10011030  RH  080%=      5-min Rain = 0
KCA1 190413Z 36031G38KT M00/M03 A2995 RMK A01 T10011030  RH  080%=      5-min Rain = 0
KCA1 190414Z 00025G33KT M00/M03 A2995 RMK A01 T10011031  RH  080%=      5-min Rain = 0
KCA1 190415Z 35027G32KT M00/M03 A2996 RMK A01 T10011030  RH  081%=      5-min Rain = 0
KCA1 190416Z 36028G33KT M00/M03 A2995 RMK A01 T10011030  RH  081%=      5-min Rain = 0
KCA1 190417Z 35028G38KT M00/M03 A2995 RMK A01 T10021029  RH  082%=      5-min Rain = 0
KCA1 190418Z 35028G34KT M00/M03 A2996 RMK A01 T10021029  RH  082%=      5-min Rain = 0
KCA1 190419Z 35028G34KT M00/M03 A2995 RMK A01 T10021028  RH  083%=      5-min Rain = 0
KCA1 190420Z 35022G32KT M00/M03 A2995 RMK A01 T10031028  RH  083%=      5-min Rain = 0
KCA1 190421Z 35026G33KT M00/M03 A2995 RMK A01 T10031027  RH  084%=      5-min Rain = 0
KCA1 190422Z 35021KT M00/M03 A2995 RMK A01 T10031026  RH  084%=      5-min Rain = 0
KCA1 190423Z 35024G30KT M00/M03 A2995 RMK A01 T10031026  RH  085%=      5-min Rain = 0
KCA1 190424Z 35022KT M00/M03 A2995 RMK A01 T10041026  RH  085%=      5-min Rain = 0
KCA1 190425Z 35025G30KT M00/M03 A2995 RMK A01 T10041025  RH  085%=      5-min Rain = 0
KCA1 190426Z 35026KT M00/M03 A2995 RMK A01 T10041025  RH  086%=      5-min Rain = 0
KCA1 190427Z 35022G29KT M00/M03 A2995 RMK A01 T10041025  RH  086%=      5-min Rain = 0
KCA1 190428Z 35025G33KT M00/M02 A2995 RMK A01 T10041024  RH  086%=      5-min Rain = 0
KCA1 190429Z 36026G33KT M00/M02 A2995 RMK A01 T10041024  RH  086%=      5-min Rain = 0
KCA1 190430Z 35022G28KT M00/M03 A2996 RMK A01 T10041025  RH  086%=      5-min Rain = 0
KCA1 190431Z 35020G27KT M00/M02 A2996 RMK A01 T10041024  RH  086%=      5-min Rain = 0
KCA1 190432Z 35018G23KT M00/M02 A2996 RMK A01 T10041024  RH  086%=      5-min Rain = 0
KCA1 190433Z 35020KT M00/M02 A2996 RMK A01 T10041024  RH  087%=      5-min Rain = 0
KCA1 190434Z 35023G33KT M00/M02 A2996 RMK A01 T10041024  RH  087%=      5-min Rain = 0
KCA1 190435Z 35027KT M00/M02 A2995 RMK A01 T10041024  RH  086%=      5-min Rain = 0
KCA1 190436Z 35023G31KT M00/M03 A2996 RMK A01 T10041025  RH  086%=      5-min Rain = 0
KCA1 190437Z 35025G30KT M00/M03 A2996 RMK A01 T10041025  RH  085%=      5-min Rain = 0
KCA1 190438Z 35025KT M00/M03 A2996 RMK A01 T10041025  RH  085%=      5-min Rain = 0
KCA1 190439Z 35022KT M00/M03 A2996 RMK A01 T10041026  RH  085%=      5-min Rain = 0
KCA1 190440Z 35023KT M00/M03 A2996 RMK A01 T10041025  RH  086%=      5-min Rain = 0
KCA1 190441Z 35018G26KT M00/M03 A2996 RMK A01 T10041025  RH  086%=      5-min Rain = 0
KCA1 190442Z 35020KT M00/M03 A2996 RMK A01 T10041025  RH  086%=      5-min Rain = 0
KCA1 190443Z 36022G29KT M00/M02 A2996 RMK A01 T10041024  RH  086%=      5-min Rain = 0
KCA1 190444Z 35019KT M01/M03 A2996 RMK A01 T10051025  RH  086%=      5-min Rain = 0
KCA1 190445Z 35019G28KT M01/M02 A2996 RMK A01 T10051024  RH  087%=      5-min Rain = 0
KCA1 190446Z 35024G29KT M01/M02 A2996 RMK A01 T10051024  RH  087%=      5-min Rain = 0
KCA1 190447Z 35017G24KT M01/M02 A2996 RMK A01 T10051024  RH  087%=      5-min Rain = 0
KCA1 190448Z 35015KT M01/M02 A2996 RMK A01 T10051023  RH  087%=      5-min Rain = 0
KCA1 190449Z 35017G22KT M01/M02 A2997 RMK A01 T10051023  RH  088%=      5-min Rain = 0
KCA1 190450Z 34017KT M01/M02 A2997 RMK A01 T10051022  RH  088%=      5-min Rain = 0
KCA1 190451Z 35018KT M01/M02 A2997 RMK A01 T10051022  RH  088%=      5-min Rain = 0
KCA1 190452Z 34019KT M01/M02 A2997 RMK A01 T10051021  RH  089%=      5-min Rain = 0
KCA1 190453Z 35017KT M01/M02 A2997 RMK A01 T10051021  RH  089%=      5-min Rain = 0
KCA1 190454Z 35016KT M01/M02 A2997 RMK A01 T10051021  RH  089%=      5-min Rain = 0
KCA1 190455Z 34015KT M01/M02 A2997 RMK A01 T10051020  RH  089%=      5-min Rain = 0
KCA1 190456Z 34017G24KT M01/M02 A2997 RMK A01 T10051020  RH  090%=      5-min Rain = 0
KCA1 190457Z 35020G28KT M01/M02 A2997 RMK A01 T10051021  RH  089%=      5-min Rain = 0
KCA1 190458Z 35021G29KT M01/M02 A2997 RMK A01 T10051022  RH  088%=      5-min Rain = 0
KCA1 190459Z 34021G30KT M01/M02 A2997 RMK A01 T10051023  RH  088%=      5-min Rain = 0
KCA1 190500Z 35027G33KT M01/M02 A2997 RMK A01 T10051024  RH  087%=      5-min Rain = 0
KCA1 190501Z 35026G31KT M01/M03 A2997 RMK A01 T10051026  RH  086%=      5-min Rain = 0
KCA1 190502Z 00025G30KT M01/M03 A2997 RMK A01 T10051026  RH  086%=      5-min Rain = 0
KCA1 190503Z 36024G30KT M01/M03 A2997 RMK A01 T10051026  RH  086%=      5-min Rain = 0
KCA1 190504Z 36026G33KT M01/M03 A2997 RMK A01 T10051026  RH  086%=      5-min Rain = 0
KCA1 190505Z 36023KT M01/M03 A2997 RMK A01 T10051027  RH  085%=      5-min Rain = 0
KCA1 190506Z 35027G32KT M01/M03 A2997 RMK A01 T10051027  RH  085%=      5-min Rain = 0
KCA1 190507Z 35025G33KT M01/M03 A2997 RMK A01 T10051028  RH  084%=      5-min Rain = 0
KCA1 190508Z 35025KT M01/M03 A2997 RMK A01 T10051028  RH  084%=      5-min Rain = 0
KCA1 190509Z 35024G32KT M01/M03 A2997 RMK A01 T10051029  RH  084%=      5-min Rain = 0
KCA1 190510Z 35025G32KT M01/M03 A2997 RMK A01 T10051029  RH  084%=      5-min Rain = 0
KCA1 190511Z 35025G31KT M01/M03 A2997 RMK A01 T10051029  RH  084%=      5-min Rain = 0
KCA1 190512Z 35021G27KT M01/M03 A2997 RMK A01 T10051030  RH  084%=      5-min Rain = 0
KCA1 190513Z 35023G31KT M01/M03 A2997 RMK A01 T10051030  RH  084%=      5-min Rain = 0
KCA1 190514Z 35026KT M01/M03 A2997 RMK A01 T10051030  RH  083%=      5-min Rain = 0
KCA1 190515Z 35024G29KT M01/M03 A2997 RMK A01 T10051031  RH  083%=      5-min Rain = 0
KCA1 190516Z 35022G27KT M01/M03 A2997 RMK A01 T10051031  RH  083%=      5-min Rain = 0
KCA1 190517Z 35024KT M01/M03 A2997 RMK A01 T10051030  RH  083%=      5-min Rain = 0
KCA1 190518Z 35023KT M01/M03 A2997 RMK A01 T10051030  RH  083%=      5-min Rain = 0
KCA1 190519Z 35025G31KT M01/M03 A2997 RMK A01 T10061030  RH  083%=      5-min Rain = 0
KCA1 190520Z 35026KT M01/M03 A2997 RMK A01 T10061031  RH  083%=      5-min Rain = 0
KCA1 190521Z 35023G29KT M01/M03 A2997 RMK A01 T10051030  RH  083%=      5-min Rain = 0
KCA1 190522Z 35028G36KT M01/M03 A2997 RMK A01 T10061031  RH  083%=      5-min Rain = 0
KCA1 190523Z 35026G31KT M01/M03 A2997 RMK A01 T10061031  RH  083%=      5-min Rain = 0
KCA1 190524Z 35023KT M01/M03 A2997 RMK A01 T10061031  RH  083%=      5-min Rain = 0
KCA1 190525Z 35022G28KT M01/M03 A2997 RMK A01 T10061031  RH  083%=      5-min Rain = 0
KCA1 190526Z 34024G29KT M01/M03 A2997 RMK A01 T10061031  RH  083%=      5-min Rain = 0
KCA1 190527Z 35021KT M01/M03 A2997 RMK A01 T10061031  RH  083%=      5-min Rain = 0
KCA1 190528Z 35020G26KT M01/M03 A2997 RMK A01 T10061030  RH  084%=      5-min Rain = 0
KCA1 190529Z 35021G26KT M01/M03 A2997 RMK A01 T10071031  RH  084%=      5-min Rain = 0
KCA1 190530Z 35024G29KT M01/M03 A2997 RMK A01 T10071031  RH  084%=      5-min Rain = 0
KCA1 190531Z 35018G25KT M01/M03 A2997 RMK A01 T10071031  RH  084%=      5-min Rain = 0
KCA1 190532Z 36019G24KT M01/M03 A2997 RMK A01 T10071030  RH  084%=      5-min Rain = 0
KCA1 190533Z 35018KT M01/M03 A2997 RMK A01 T10071030  RH  085%=      5-min Rain = 0
KCA1 190534Z 35021G28KT M01/M03 A2997 RMK A01 T10081030  RH  085%=      5-min Rain = 0
KCA1 190535Z 35018G26KT M01/M03 A2997 RMK A01 T10071029  RH  085%=      5-min Rain = 0
KCA1 190536Z 35018KT M01/M03 A2997 RMK A01 T10071029  RH  085%=      5-min Rain = 0
KCA1 190537Z 34021G27KT M01/M03 A2997 RMK A01 T10081029  RH  085%=      5-min Rain = 0
KCA1 190538Z 35020KT M01/M03 A2997 RMK A01 T10071029  RH  085%=      5-min Rain = 0
KCA1 190539Z 35021G26KT M01/M03 A2998 RMK A01 T10071029  RH  085%=      5-min Rain = 0
KCA1 190540Z 34017KT M01/M03 A2998 RMK A01 T10071029  RH  085%=      5-min Rain = 0
KCA1 190541Z 34017KT M01/M03 A2997 RMK A01 T10081029  RH  085%=      5-min Rain = 0
KCA1 190542Z 35018G23KT M01/M03 A2998 RMK A01 T10071029  RH  086%=      5-min Rain = 0
KCA1 190543Z 34015G22KT M01/M03 A2998 RMK A01 T10071028  RH  086%=      5-min Rain = 0
KCA1 190544Z 34020KT M01/M03 A2998 RMK A01 T10081029  RH  086%=      5-min Rain = 0
KCA1 190545Z 35020G25KT M01/M03 A2998 RMK A01 T10071028  RH  085%=      5-min Rain = 0
KCA1 190546Z 35016KT M01/M03 A2998 RMK A01 T10071029  RH  085%=      5-min Rain = 0
KCA1 190547Z 35020G25KT M01/M03 A2998 RMK A01 T10071029  RH  085%=      5-min Rain = 0
KCA1 190548Z 35019G25KT M01/M03 A2998 RMK A01 T10061029  RH  085%=      5-min Rain = 0
KCA1 190549Z 34022G27KT M01/M03 A2998 RMK A01 T10061029  RH  084%=      5-min Rain = 0
KCA1 190550Z 34020G25KT M01/M03 A2998 RMK A01 T10061030  RH  084%=      5-min Rain = 0
KCA1 190551Z 34019G26KT M01/M03 A2998 RMK A01 T10061030  RH  084%=      5-min Rain = 0
KCA1 190552Z 34022G27KT M01/M03 A2998 RMK A01 T10051031  RH  083%=      5-min Rain = 0
KCA1 190553Z 34019G26KT M01/M03 A2998 RMK A01 T10051031  RH  082%=      5-min Rain = 0
KCA1 190554Z 34021G26KT M01/M03 A2998 RMK A01 T10051031  RH  082%=      5-min Rain = 0
KCA1 190555Z 34026G33KT M00/M03 A2998 RMK A01 T10041031  RH  082%=      5-min Rain = 0
KCA1 190556Z 34027KT M00/M03 A2998 RMK A01 T10041032  RH  081%=      5-min Rain = 0
KCA1 190557Z 35021G26KT M00/M03 A2998 RMK A01 T10041033  RH  081%=      5-min Rain = 0
KCA1 190558Z 34021G27KT M00/M03 A2998 RMK A01 T10041033  RH  081%=      5-min Rain = 0
KCA1 190559Z 34019G30KT M00/M03 A2998 RMK A01 T10031032  RH  081%=      5-min Rain = 0

Page generated in 0.1221 seconds.